<?xml version="1.0" encoding="UTF-8" standalone="no" ?>
<gpx xmlns="http://www.topografix.com/GPX/1/1" xmlns:xsi="http://www.w3.org/2001/XMLSchema-instance" xsi:schemaLocation="http://www.topografix.com/GPX/1/1 http://www.topografix.com/GPX/1/1/gpx.xsd" version="1.1" creator="VisuGPX - https://www.visugpx.com">
  <metadata>
    <name>Gramat - Lacapelle Marival</name>
    <desc><![CDATA[

]]></desc>
  </metadata>
  <trk>
    <name><![CDATA[Gramat - Lacapelle Marival]]></name>
    <extensions>
      <line xmlns="http://www.topografix.com/GPX/gpx_style/0/2">
        <color>ffae00</color>
        <opacity>1</opacity>
        <width>9</width>
      </line>
    </extensions>
    <trkseg>
      <trkpt lat="44.76904" lon="1.72815">
        <ele>308.619</ele>
        <time>2018-08-02T06:42:34Z</time>
      </trkpt>
      <trkpt lat="44.76904" lon="1.72815">
        <ele>308.619</ele>
        <time>2018-08-02T06:42:34Z</time>
      </trkpt>
      <trkpt lat="44.76904" lon="1.72815">
        <ele>308.619</ele>
        <time>2018-08-02T06:42:34Z</time>
      </trkpt>
      <trkpt lat="44.76791" lon="1.72836">
        <ele>311.428</ele>
        <time>2018-08-02T06:42:54Z</time>
      </trkpt>
      <trkpt lat="44.76723" lon="1.72875">
        <ele>312.941</ele>
        <time>2018-08-02T06:43:14Z</time>
      </trkpt>
      <trkpt lat="44.76722" lon="1.72875">
        <ele>313.054</ele>
        <time>2018-08-02T06:43:34Z</time>
      </trkpt>
      <trkpt lat="44.76702" lon="1.72906">
        <ele>312.214</ele>
        <time>2018-08-02T06:43:54Z</time>
      </trkpt>
      <trkpt lat="44.76702" lon="1.72908">
        <ele>312.154</ele>
        <time>2018-08-02T06:44:14Z</time>
      </trkpt>
      <trkpt lat="44.76664" lon="1.73009">
        <ele>308.409</ele>
        <time>2018-08-02T06:44:34Z</time>
      </trkpt>
      <trkpt lat="44.76626" lon="1.73076">
        <ele>313.308</ele>
        <time>2018-08-02T06:44:54Z</time>
      </trkpt>
      <trkpt lat="44.76621" lon="1.73084">
        <ele>314.273</ele>
        <time>2018-08-02T06:45:14Z</time>
      </trkpt>
      <trkpt lat="44.76576" lon="1.73165">
        <ele>317.538</ele>
        <time>2018-08-02T06:45:34Z</time>
      </trkpt>
      <trkpt lat="44.7657" lon="1.73169">
        <ele>317.462</ele>
        <time>2018-08-02T06:45:54Z</time>
      </trkpt>
      <trkpt lat="44.76539" lon="1.7321">
        <ele>315.651</ele>
        <time>2018-08-02T06:46:14Z</time>
      </trkpt>
      <trkpt lat="44.76558" lon="1.73245">
        <ele>312.323</ele>
        <time>2018-08-02T06:46:34Z</time>
      </trkpt>
      <trkpt lat="44.76528" lon="1.73278">
        <ele>312.162</ele>
        <time>2018-08-02T06:46:54Z</time>
      </trkpt>
      <trkpt lat="44.76514" lon="1.73311">
        <ele>310.225</ele>
        <time>2018-08-02T06:47:14Z</time>
      </trkpt>
      <trkpt lat="44.76512" lon="1.73311">
        <ele>310.368</ele>
        <time>2018-08-02T06:47:34Z</time>
      </trkpt>
      <trkpt lat="44.76475" lon="1.73372">
        <ele>307.348</ele>
        <time>2018-08-02T06:47:54Z</time>
      </trkpt>
      <trkpt lat="44.76471" lon="1.73372">
        <ele>307.461</ele>
        <time>2018-08-02T06:48:14Z</time>
      </trkpt>
      <trkpt lat="44.76444" lon="1.73401">
        <ele>306.517</ele>
        <time>2018-08-02T06:48:34Z</time>
      </trkpt>
      <trkpt lat="44.7644" lon="1.73401">
        <ele>306.708</ele>
        <time>2018-08-02T06:48:54Z</time>
      </trkpt>
      <trkpt lat="44.76411" lon="1.73417">
        <ele>307.246</ele>
        <time>2018-08-02T06:49:14Z</time>
      </trkpt>
      <trkpt lat="44.76427" lon="1.73409">
        <ele>306.941</ele>
        <time>2018-08-02T06:49:34Z</time>
      </trkpt>
      <trkpt lat="44.76427" lon="1.73411">
        <ele>306.845</ele>
        <time>2018-08-02T06:49:54Z</time>
      </trkpt>
      <trkpt lat="44.76467" lon="1.7338">
        <ele>307.064</ele>
        <time>2018-08-02T06:50:14Z</time>
      </trkpt>
      <trkpt lat="44.76545" lon="1.73652">
        <ele>296.496</ele>
        <time>2018-08-02T06:50:34Z</time>
      </trkpt>
      <trkpt lat="44.76535" lon="1.73666">
        <ele>300.245</ele>
        <time>2018-07-31T17:29:21Z</time>
      </trkpt>
      <trkpt lat="44.76523" lon="1.73688">
        <ele>302.388</ele>
        <time>2018-07-31T17:29:01Z</time>
      </trkpt>
      <trkpt lat="44.76515" lon="1.73717">
        <ele>304.661</ele>
        <time>2018-07-31T17:28:41Z</time>
      </trkpt>
      <trkpt lat="44.76462" lon="1.738">
        <ele>304.935</ele>
        <time>2018-07-31T17:28:21Z</time>
      </trkpt>
      <trkpt lat="44.76428" lon="1.73909">
        <ele>305.086</ele>
        <time>2018-07-31T17:28:01Z</time>
      </trkpt>
      <trkpt lat="44.76404" lon="1.73951">
        <ele>304.614</ele>
        <time>2018-07-31T17:27:41Z</time>
      </trkpt>
      <trkpt lat="44.76385" lon="1.73968">
        <ele>303.908</ele>
        <time>2018-07-31T17:27:21Z</time>
      </trkpt>
      <trkpt lat="44.76336" lon="1.73998">
        <ele>302.055</ele>
        <time>2018-07-31T17:27:01Z</time>
      </trkpt>
      <trkpt lat="44.7629" lon="1.74021">
        <ele>301.43</ele>
        <time>2018-07-31T17:26:41Z</time>
      </trkpt>
      <trkpt lat="44.7624" lon="1.74045">
        <ele>304.734</ele>
        <time>2018-07-31T17:26:21Z</time>
      </trkpt>
      <trkpt lat="44.76175" lon="1.74089">
        <ele>311.493</ele>
        <time>2018-07-31T17:26:01Z</time>
      </trkpt>
      <trkpt lat="44.76151" lon="1.7411">
        <ele>311.225</ele>
        <time>2018-07-31T17:25:41Z</time>
      </trkpt>
      <trkpt lat="44.7612" lon="1.74132">
        <ele>309.084</ele>
        <time>2018-07-31T17:25:21Z</time>
      </trkpt>
      <trkpt lat="44.7609" lon="1.74149">
        <ele>308.217</ele>
        <time>2018-07-31T17:25:01Z</time>
      </trkpt>
      <trkpt lat="44.76062" lon="1.74157">
        <ele>305.98</ele>
        <time>2018-07-31T17:24:41Z</time>
      </trkpt>
      <trkpt lat="44.76047" lon="1.74174">
        <ele>305.646</ele>
        <time>2018-07-31T17:24:21Z</time>
      </trkpt>
      <trkpt lat="44.76027" lon="1.74202">
        <ele>304.888</ele>
        <time>2018-07-31T17:24:01Z</time>
      </trkpt>
      <trkpt lat="44.76021" lon="1.74215">
        <ele>303.416</ele>
        <time>2018-07-31T17:23:41Z</time>
      </trkpt>
      <trkpt lat="44.76011" lon="1.74251">
        <ele>302.708</ele>
        <time>2018-07-31T17:23:21Z</time>
      </trkpt>
      <trkpt lat="44.75992" lon="1.74339">
        <ele>305.116</ele>
        <time>2018-07-31T17:23:01Z</time>
      </trkpt>
      <trkpt lat="44.75915" lon="1.74446">
        <ele>304.951</ele>
        <time>2018-07-31T17:22:41Z</time>
      </trkpt>
      <trkpt lat="44.75891" lon="1.7448">
        <ele>306.185</ele>
        <time>2018-07-31T17:22:21Z</time>
      </trkpt>
      <trkpt lat="44.75881" lon="1.74498">
        <ele>307.514</ele>
        <time>2018-07-31T17:22:01Z</time>
      </trkpt>
      <trkpt lat="44.75851" lon="1.74539">
        <ele>309.866</ele>
        <time>2018-07-31T17:21:41Z</time>
      </trkpt>
      <trkpt lat="44.75822" lon="1.74575">
        <ele>312.425</ele>
        <time>2018-07-31T17:21:21Z</time>
      </trkpt>
      <trkpt lat="44.75803" lon="1.74591">
        <ele>313.148</ele>
        <time>2018-07-31T17:21:01Z</time>
      </trkpt>
      <trkpt lat="44.75755" lon="1.7462">
        <ele>313.371</ele>
        <time>2018-07-31T17:20:41Z</time>
      </trkpt>
      <trkpt lat="44.75716" lon="1.74628">
        <ele>316.537</ele>
        <time>2018-07-31T17:20:21Z</time>
      </trkpt>
      <trkpt lat="44.75702" lon="1.74639">
        <ele>317.049</ele>
        <time>2018-07-31T17:20:01Z</time>
      </trkpt>
      <trkpt lat="44.75686" lon="1.74647">
        <ele>316.913</ele>
        <time>2018-07-31T17:19:41Z</time>
      </trkpt>
      <trkpt lat="44.75653" lon="1.74677">
        <ele>315.508</ele>
        <time>2018-07-31T17:19:21Z</time>
      </trkpt>
      <trkpt lat="44.7564" lon="1.74702">
        <ele>315.185</ele>
        <time>2018-07-31T17:19:01Z</time>
      </trkpt>
      <trkpt lat="44.75622" lon="1.74741">
        <ele>315.14</ele>
        <time>2018-07-31T17:18:41Z</time>
      </trkpt>
      <trkpt lat="44.75603" lon="1.74801">
        <ele>313.844</ele>
        <time>2018-07-31T17:18:21Z</time>
      </trkpt>
      <trkpt lat="44.75598" lon="1.74836">
        <ele>312.643</ele>
        <time>2018-07-31T17:18:01Z</time>
      </trkpt>
      <trkpt lat="44.75593" lon="1.74883">
        <ele>311.745</ele>
        <time>2018-07-31T17:17:41Z</time>
      </trkpt>
      <trkpt lat="44.75583" lon="1.74937">
        <ele>310.394</ele>
        <time>2018-07-31T17:17:21Z</time>
      </trkpt>
      <trkpt lat="44.75558" lon="1.74967">
        <ele>305.537</ele>
        <time>2018-07-31T17:17:01Z</time>
      </trkpt>
      <trkpt lat="44.7553" lon="1.74988">
        <ele>301.83</ele>
        <time>2018-07-31T17:16:41Z</time>
      </trkpt>
      <trkpt lat="44.75507" lon="1.75002">
        <ele>305.098</ele>
        <time>2018-07-31T17:16:21Z</time>
      </trkpt>
      <trkpt lat="44.7548" lon="1.75029">
        <ele>311.315</ele>
        <time>2018-07-31T17:16:01Z</time>
      </trkpt>
      <trkpt lat="44.75449" lon="1.75061">
        <ele>314.726</ele>
        <time>2018-07-31T17:15:41Z</time>
      </trkpt>
      <trkpt lat="44.7544" lon="1.75067">
        <ele>314.708</ele>
        <time>2018-07-31T17:15:21Z</time>
      </trkpt>
      <trkpt lat="44.75413" lon="1.75069">
        <ele>312.981</ele>
        <time>2018-07-31T17:15:01Z</time>
      </trkpt>
      <trkpt lat="44.75395" lon="1.75073">
        <ele>312.776</ele>
        <time>2018-07-31T17:14:41Z</time>
      </trkpt>
      <trkpt lat="44.75368" lon="1.7509">
        <ele>314.68</ele>
        <time>2018-07-31T17:14:21Z</time>
      </trkpt>
      <trkpt lat="44.75324" lon="1.75039">
        <ele>312.489</ele>
        <time>2018-07-31T17:14:01Z</time>
      </trkpt>
      <trkpt lat="44.75288" lon="1.7501">
        <ele>311.061</ele>
        <time>2018-07-31T17:13:41Z</time>
      </trkpt>
      <trkpt lat="44.75276" lon="1.7501">
        <ele>310.74</ele>
        <time>2018-07-31T17:13:21Z</time>
      </trkpt>
      <trkpt lat="44.75232" lon="1.7502">
        <ele>312.433</ele>
        <time>2018-07-31T17:13:01Z</time>
      </trkpt>
      <trkpt lat="44.75196" lon="1.75051">
        <ele>314.776</ele>
        <time>2018-07-31T17:12:41Z</time>
      </trkpt>
      <trkpt lat="44.75156" lon="1.75088">
        <ele>313.669</ele>
        <time>2018-07-31T17:12:21Z</time>
      </trkpt>
      <trkpt lat="44.75108" lon="1.7509">
        <ele>306.404</ele>
        <time>2018-07-31T17:12:01Z</time>
      </trkpt>
      <trkpt lat="44.75071" lon="1.75076">
        <ele>304.924</ele>
        <time>2018-07-31T17:11:41Z</time>
      </trkpt>
      <trkpt lat="44.75013" lon="1.75051">
        <ele>305.208</ele>
        <time>2018-07-31T17:11:21Z</time>
      </trkpt>
      <trkpt lat="44.74999" lon="1.75051">
        <ele>304.848</ele>
        <time>2018-07-31T17:11:01Z</time>
      </trkpt>
      <trkpt lat="44.74964" lon="1.7507">
        <ele>304.473</ele>
        <time>2018-07-31T17:10:41Z</time>
      </trkpt>
      <trkpt lat="44.74934" lon="1.75138">
        <ele>306.237</ele>
        <time>2018-07-31T17:10:21Z</time>
      </trkpt>
      <trkpt lat="44.74915" lon="1.75246">
        <ele>306.626</ele>
        <time>2018-07-31T17:10:01Z</time>
      </trkpt>
      <trkpt lat="44.7489" lon="1.75299">
        <ele>304.928</ele>
        <time>2018-07-31T17:09:41Z</time>
      </trkpt>
      <trkpt lat="44.74849" lon="1.75314">
        <ele>305.327</ele>
        <time>2018-07-31T17:09:21Z</time>
      </trkpt>
      <trkpt lat="44.74816" lon="1.75323">
        <ele>306.81</ele>
        <time>2018-07-31T17:09:01Z</time>
      </trkpt>
      <trkpt lat="44.74809" lon="1.7536">
        <ele>305.843</ele>
        <time>2018-07-31T17:08:41Z</time>
      </trkpt>
      <trkpt lat="44.74811" lon="1.75413">
        <ele>304.692</ele>
        <time>2018-07-31T17:08:21Z</time>
      </trkpt>
      <trkpt lat="44.74809" lon="1.75443">
        <ele>304.773</ele>
        <time>2018-07-31T17:08:01Z</time>
      </trkpt>
      <trkpt lat="44.74784" lon="1.75509">
        <ele>308.92</ele>
        <time>2018-07-31T17:07:41Z</time>
      </trkpt>
      <trkpt lat="44.74758" lon="1.75568">
        <ele>311.008</ele>
        <time>2018-07-31T17:07:21Z</time>
      </trkpt>
      <trkpt lat="44.74742" lon="1.75602">
        <ele>311.371</ele>
        <time>2018-07-31T17:07:01Z</time>
      </trkpt>
      <trkpt lat="44.74744" lon="1.75626">
        <ele>311.216</ele>
        <time>2018-07-31T17:06:41Z</time>
      </trkpt>
      <trkpt lat="44.74732" lon="1.7568">
        <ele>313.37</ele>
        <time>2018-07-31T17:06:21Z</time>
      </trkpt>
      <trkpt lat="44.74725" lon="1.75705">
        <ele>313.449</ele>
        <time>2018-07-31T17:06:01Z</time>
      </trkpt>
      <trkpt lat="44.74728" lon="1.75721">
        <ele>312.921</ele>
        <time>2018-07-31T17:05:41Z</time>
      </trkpt>
      <trkpt lat="44.74746" lon="1.75756">
        <ele>312.28</ele>
        <time>2018-07-31T17:05:21Z</time>
      </trkpt>
      <trkpt lat="44.74751" lon="1.75792">
        <ele>313.543</ele>
        <time>2018-07-31T17:05:01Z</time>
      </trkpt>
      <trkpt lat="44.74746" lon="1.75826">
        <ele>314.376</ele>
        <time>2018-07-31T17:04:41Z</time>
      </trkpt>
      <trkpt lat="44.74746" lon="1.7585">
        <ele>314.762</ele>
        <time>2018-07-31T17:04:21Z</time>
      </trkpt>
      <trkpt lat="44.74801" lon="1.75874">
        <ele>310.583</ele>
        <time>2018-07-31T17:04:01Z</time>
      </trkpt>
      <trkpt lat="44.74847" lon="1.75927">
        <ele>306.011</ele>
        <time>2018-07-31T17:03:41Z</time>
      </trkpt>
      <trkpt lat="44.7489" lon="1.76023">
        <ele>302.308</ele>
        <time>2018-07-31T17:03:21Z</time>
      </trkpt>
      <trkpt lat="44.74929" lon="1.76077">
        <ele>308.788</ele>
        <time>2018-07-31T17:03:01Z</time>
      </trkpt>
      <trkpt lat="44.75037" lon="1.76208">
        <ele>312.833</ele>
        <time>2018-07-31T17:02:41Z</time>
      </trkpt>
      <trkpt lat="44.75052" lon="1.76256">
        <ele>312.997</ele>
        <time>2018-07-31T17:02:21Z</time>
      </trkpt>
      <trkpt lat="44.75064" lon="1.76313">
        <ele>313.426</ele>
        <time>2018-07-31T17:02:01Z</time>
      </trkpt>
      <trkpt lat="44.75069" lon="1.76438">
        <ele>311.288</ele>
        <time>2018-07-31T17:01:41Z</time>
      </trkpt>
      <trkpt lat="44.75074" lon="1.76605">
        <ele>309.417</ele>
        <time>2018-07-31T17:01:21Z</time>
      </trkpt>
      <trkpt lat="44.75077" lon="1.76779">
        <ele>320.97</ele>
        <time>2018-07-31T17:01:01Z</time>
      </trkpt>
      <trkpt lat="44.75075" lon="1.76871">
        <ele>324.853</ele>
        <time>2018-07-31T17:00:41Z</time>
      </trkpt>
      <trkpt lat="44.75071" lon="1.76907">
        <ele>325.325</ele>
        <time>2018-07-31T17:00:21Z</time>
      </trkpt>
      <trkpt lat="44.75043" lon="1.77004">
        <ele>330.826</ele>
        <time>2018-07-31T17:00:01Z</time>
      </trkpt>
      <trkpt lat="44.75041" lon="1.77039">
        <ele>333.408</ele>
        <time>2018-07-31T16:59:41Z</time>
      </trkpt>
      <trkpt lat="44.7504" lon="1.77093">
        <ele>335.208</ele>
        <time>2018-07-31T16:59:21Z</time>
      </trkpt>
      <trkpt lat="44.75041" lon="1.77149">
        <ele>335.344</ele>
        <time>2018-07-31T16:59:01Z</time>
      </trkpt>
      <trkpt lat="44.75046" lon="1.77183">
        <ele>335.119</ele>
        <time>2018-07-31T16:58:41Z</time>
      </trkpt>
      <trkpt lat="44.75042" lon="1.77201">
        <ele>335.743</ele>
        <time>2018-07-31T16:58:21Z</time>
      </trkpt>
      <trkpt lat="44.75032" lon="1.77263">
        <ele>338.042</ele>
        <time>2018-07-31T16:58:01Z</time>
      </trkpt>
      <trkpt lat="44.75034" lon="1.77292">
        <ele>338.654</ele>
        <time>2018-07-31T16:57:41Z</time>
      </trkpt>
      <trkpt lat="44.75036" lon="1.77328">
        <ele>339.833</ele>
        <time>2018-07-31T16:57:21Z</time>
      </trkpt>
      <trkpt lat="44.75041" lon="1.77379">
        <ele>341.056</ele>
        <time>2018-07-31T16:57:01Z</time>
      </trkpt>
      <trkpt lat="44.75043" lon="1.77407">
        <ele>340.729</ele>
        <time>2018-07-31T16:56:41Z</time>
      </trkpt>
      <trkpt lat="44.75037" lon="1.77443">
        <ele>341.018</ele>
        <time>2018-07-31T16:56:21Z</time>
      </trkpt>
      <trkpt lat="44.75008" lon="1.77551">
        <ele>342.098</ele>
        <time>2018-07-31T16:56:01Z</time>
      </trkpt>
      <trkpt lat="44.74991" lon="1.77602">
        <ele>341.717</ele>
        <time>2018-07-31T16:55:41Z</time>
      </trkpt>
      <trkpt lat="44.74972" lon="1.77644">
        <ele>344.008</ele>
        <time>2018-07-31T16:55:21Z</time>
      </trkpt>
      <trkpt lat="44.74949" lon="1.77686">
        <ele>343.193</ele>
        <time>2018-07-31T16:55:01Z</time>
      </trkpt>
      <trkpt lat="44.74938" lon="1.77693">
        <ele>343.568</ele>
        <time>2018-07-31T16:54:41Z</time>
      </trkpt>
      <trkpt lat="44.74924" lon="1.77705">
        <ele>344.432</ele>
        <time>2018-07-31T16:54:21Z</time>
      </trkpt>
      <trkpt lat="44.74906" lon="1.77742">
        <ele>344.821</ele>
        <time>2018-07-31T16:54:01Z</time>
      </trkpt>
      <trkpt lat="44.74883" lon="1.77781">
        <ele>346.263</ele>
        <time>2018-07-31T16:53:41Z</time>
      </trkpt>
      <trkpt lat="44.74845" lon="1.77798">
        <ele>345.722</ele>
        <time>2018-07-31T16:53:21Z</time>
      </trkpt>
      <trkpt lat="44.74787" lon="1.77862">
        <ele>347.385</ele>
        <time>2018-07-31T16:53:01Z</time>
      </trkpt>
      <trkpt lat="44.74769" lon="1.77899">
        <ele>348.758</ele>
        <time>2018-07-31T16:52:41Z</time>
      </trkpt>
      <trkpt lat="44.74756" lon="1.77919">
        <ele>348.438</ele>
        <time>2018-07-31T16:52:21Z</time>
      </trkpt>
      <trkpt lat="44.74744" lon="1.77928">
        <ele>348.07</ele>
        <time>2018-07-31T16:52:01Z</time>
      </trkpt>
      <trkpt lat="44.74724" lon="1.77931">
        <ele>347.517</ele>
        <time>2018-07-31T16:51:41Z</time>
      </trkpt>
      <trkpt lat="44.74693" lon="1.77936">
        <ele>347.008</ele>
        <time>2018-07-31T16:51:21Z</time>
      </trkpt>
      <trkpt lat="44.74632" lon="1.77931">
        <ele>348.825</ele>
        <time>2018-07-31T16:51:01Z</time>
      </trkpt>
      <trkpt lat="44.7456" lon="1.77911">
        <ele>349.53</ele>
        <time>2018-07-31T16:50:41Z</time>
      </trkpt>
      <trkpt lat="44.74536" lon="1.77916">
        <ele>346.154</ele>
        <time>2018-07-31T16:50:21Z</time>
      </trkpt>
      <trkpt lat="44.74512" lon="1.77922">
        <ele>343.313</ele>
        <time>2018-07-31T16:50:01Z</time>
      </trkpt>
      <trkpt lat="44.74478" lon="1.77944">
        <ele>340.615</ele>
        <time>2018-07-31T16:49:41Z</time>
      </trkpt>
      <trkpt lat="44.74438" lon="1.77966">
        <ele>340.734</ele>
        <time>2018-07-31T16:49:21Z</time>
      </trkpt>
      <trkpt lat="44.74428" lon="1.7798">
        <ele>342.047</ele>
        <time>2018-07-31T16:49:01Z</time>
      </trkpt>
      <trkpt lat="44.74426" lon="1.77993">
        <ele>342.76</ele>
        <time>2018-07-31T16:48:41Z</time>
      </trkpt>
      <trkpt lat="44.7442" lon="1.78023">
        <ele>343.979</ele>
        <time>2018-07-31T16:48:21Z</time>
      </trkpt>
      <trkpt lat="44.74427" lon="1.78051">
        <ele>344.605</ele>
        <time>2018-07-31T16:48:01Z</time>
      </trkpt>
      <trkpt lat="44.74427" lon="1.78058">
        <ele>344.525</ele>
        <time>2018-07-31T16:47:41Z</time>
      </trkpt>
      <trkpt lat="44.74423" lon="1.78061">
        <ele>344.608</ele>
        <time>2018-07-31T16:47:21Z</time>
      </trkpt>
      <trkpt lat="44.74395" lon="1.78059">
        <ele>344.989</ele>
        <time>2018-07-31T16:47:01Z</time>
      </trkpt>
      <trkpt lat="44.74373" lon="1.78044">
        <ele>344.074</ele>
        <time>2018-07-31T16:46:41Z</time>
      </trkpt>
      <trkpt lat="44.74334" lon="1.78039">
        <ele>345.038</ele>
        <time>2018-07-31T16:46:21Z</time>
      </trkpt>
      <trkpt lat="44.74308" lon="1.78049">
        <ele>347.147</ele>
        <time>2018-07-31T16:46:01Z</time>
      </trkpt>
      <trkpt lat="44.74271" lon="1.78069">
        <ele>344.829</ele>
        <time>2018-07-31T16:45:41Z</time>
      </trkpt>
      <trkpt lat="44.74249" lon="1.78105">
        <ele>343.258</ele>
        <time>2018-07-31T16:45:21Z</time>
      </trkpt>
      <trkpt lat="44.74229" lon="1.78144">
        <ele>343.761</ele>
        <time>2018-07-31T16:45:01Z</time>
      </trkpt>
      <trkpt lat="44.74221" lon="1.78185">
        <ele>345.784</ele>
        <time>2018-07-31T16:44:41Z</time>
      </trkpt>
      <trkpt lat="44.74192" lon="1.78265">
        <ele>346.992</ele>
        <time>2018-07-31T16:44:21Z</time>
      </trkpt>
      <trkpt lat="44.74188" lon="1.78302">
        <ele>345.573</ele>
        <time>2018-07-31T16:44:01Z</time>
      </trkpt>
      <trkpt lat="44.74178" lon="1.78356">
        <ele>342.02</ele>
        <time>2018-07-31T16:43:41Z</time>
      </trkpt>
      <trkpt lat="44.74177" lon="1.78392">
        <ele>344.108</ele>
        <time>2018-07-31T16:43:21Z</time>
      </trkpt>
      <trkpt lat="44.74172" lon="1.78437">
        <ele>347.191</ele>
        <time>2018-07-31T16:43:01Z</time>
      </trkpt>
      <trkpt lat="44.74165" lon="1.78482">
        <ele>349.316</ele>
        <time>2018-07-31T16:42:41Z</time>
      </trkpt>
      <trkpt lat="44.74166" lon="1.78578">
        <ele>346.23</ele>
        <time>2018-07-31T16:42:21Z</time>
      </trkpt>
      <trkpt lat="44.74159" lon="1.78641">
        <ele>345.139</ele>
        <time>2018-07-31T16:42:01Z</time>
      </trkpt>
      <trkpt lat="44.74165" lon="1.78669">
        <ele>345.921</ele>
        <time>2018-07-31T16:41:41Z</time>
      </trkpt>
      <trkpt lat="44.74174" lon="1.78692">
        <ele>345.11</ele>
        <time>2018-07-31T16:41:21Z</time>
      </trkpt>
      <trkpt lat="44.74201" lon="1.78708">
        <ele>344.343</ele>
        <time>2018-07-31T16:41:01Z</time>
      </trkpt>
      <trkpt lat="44.74221" lon="1.78714">
        <ele>343.386</ele>
        <time>2018-07-31T16:40:41Z</time>
      </trkpt>
      <trkpt lat="44.74253" lon="1.78728">
        <ele>339.431</ele>
        <time>2018-07-31T16:40:21Z</time>
      </trkpt>
      <trkpt lat="44.74282" lon="1.78716">
        <ele>336.561</ele>
        <time>2018-07-31T16:40:01Z</time>
      </trkpt>
      <trkpt lat="44.74296" lon="1.78723">
        <ele>335.307</ele>
        <time>2018-07-31T16:39:41Z</time>
      </trkpt>
      <trkpt lat="44.74378" lon="1.78767">
        <ele>333.608</ele>
        <time>2018-07-31T16:39:21Z</time>
      </trkpt>
      <trkpt lat="44.74397" lon="1.78773">
        <ele>332.735</ele>
        <time>2018-07-31T16:39:01Z</time>
      </trkpt>
      <trkpt lat="44.7441" lon="1.78784">
        <ele>332.48</ele>
        <time>2018-07-31T16:38:41Z</time>
      </trkpt>
      <trkpt lat="44.74415" lon="1.78811">
        <ele>333.254</ele>
        <time>2018-07-31T16:38:21Z</time>
      </trkpt>
      <trkpt lat="44.74411" lon="1.78832">
        <ele>334.083</ele>
        <time>2018-07-31T16:38:01Z</time>
      </trkpt>
      <trkpt lat="44.74399" lon="1.78891">
        <ele>335.185</ele>
        <time>2018-07-31T16:37:41Z</time>
      </trkpt>
      <trkpt lat="44.74396" lon="1.78923">
        <ele>336.844</ele>
        <time>2018-07-31T16:37:21Z</time>
      </trkpt>
      <trkpt lat="44.74399" lon="1.78946">
        <ele>338.137</ele>
        <time>2018-07-31T16:37:01Z</time>
      </trkpt>
      <trkpt lat="44.74427" lon="1.79019">
        <ele>342.81</ele>
        <time>2018-07-31T16:36:41Z</time>
      </trkpt>
      <trkpt lat="44.74481" lon="1.79139">
        <ele>347.361</ele>
        <time>2018-07-31T16:36:21Z</time>
      </trkpt>
      <trkpt lat="44.74513" lon="1.79198">
        <ele>346.521</ele>
        <time>2018-07-31T16:36:01Z</time>
      </trkpt>
      <trkpt lat="44.74601" lon="1.79299">
        <ele>343.413</ele>
        <time>2018-07-31T16:35:41Z</time>
      </trkpt>
      <trkpt lat="44.74622" lon="1.79308">
        <ele>341.608</ele>
        <time>2018-07-31T16:35:21Z</time>
      </trkpt>
      <trkpt lat="44.74683" lon="1.79325">
        <ele>337.698</ele>
        <time>2018-07-31T16:35:01Z</time>
      </trkpt>
      <trkpt lat="44.74726" lon="1.79363">
        <ele>339.953</ele>
        <time>2018-07-31T16:34:41Z</time>
      </trkpt>
      <trkpt lat="44.74747" lon="1.79382">
        <ele>339.147</ele>
        <time>2018-07-31T16:34:21Z</time>
      </trkpt>
      <trkpt lat="44.74797" lon="1.79416">
        <ele>335.496</ele>
        <time>2018-07-31T16:34:01Z</time>
      </trkpt>
      <trkpt lat="44.74845" lon="1.79466">
        <ele>337.158</ele>
        <time>2018-07-31T16:33:41Z</time>
      </trkpt>
      <trkpt lat="44.74879" lon="1.79498">
        <ele>338.427</ele>
        <time>2018-07-31T16:33:21Z</time>
      </trkpt>
      <trkpt lat="44.74907" lon="1.79538">
        <ele>338.69</ele>
        <time>2018-07-31T16:33:01Z</time>
      </trkpt>
      <trkpt lat="44.74958" lon="1.79591">
        <ele>341.153</ele>
        <time>2018-07-31T16:32:41Z</time>
      </trkpt>
      <trkpt lat="44.74963" lon="1.79603">
        <ele>341.288</ele>
        <time>2018-07-31T16:32:21Z</time>
      </trkpt>
      <trkpt lat="44.74961" lon="1.79648">
        <ele>340.724</ele>
        <time>2018-07-31T16:32:01Z</time>
      </trkpt>
      <trkpt lat="44.74972" lon="1.79727">
        <ele>337.626</ele>
        <time>2018-07-31T16:31:41Z</time>
      </trkpt>
      <trkpt lat="44.74957" lon="1.79729">
        <ele>337.108</ele>
        <time>2018-07-31T16:31:21Z</time>
      </trkpt>
      <trkpt lat="44.74946" lon="1.79733">
        <ele>336.71</ele>
        <time>2018-07-31T16:31:01Z</time>
      </trkpt>
      <trkpt lat="44.74928" lon="1.79748">
        <ele>336.625</ele>
        <time>2018-07-31T16:30:41Z</time>
      </trkpt>
      <trkpt lat="44.74894" lon="1.79789">
        <ele>335.929</ele>
        <time>2018-07-31T16:30:21Z</time>
      </trkpt>
      <trkpt lat="44.74883" lon="1.79801">
        <ele>335.878</ele>
        <time>2018-07-31T16:30:01Z</time>
      </trkpt>
      <trkpt lat="44.74875" lon="1.79803">
        <ele>335.66</ele>
        <time>2018-07-31T16:29:41Z</time>
      </trkpt>
      <trkpt lat="44.74863" lon="1.79805">
        <ele>335.199</ele>
        <time>2018-07-31T16:29:21Z</time>
      </trkpt>
      <trkpt lat="44.74848" lon="1.79842">
        <ele>334.012</ele>
        <time>2018-07-31T16:29:01Z</time>
      </trkpt>
      <trkpt lat="44.74826" lon="1.79898">
        <ele>331.045</ele>
        <time>2018-07-31T16:28:41Z</time>
      </trkpt>
      <trkpt lat="44.74811" lon="1.79926">
        <ele>330.579</ele>
        <time>2018-07-31T16:28:21Z</time>
      </trkpt>
      <trkpt lat="44.74781" lon="1.79964">
        <ele>330.005</ele>
        <time>2018-07-31T16:28:01Z</time>
      </trkpt>
      <trkpt lat="44.74838" lon="1.80069">
        <ele>328.625</ele>
        <time>2018-07-31T16:27:41Z</time>
      </trkpt>
      <trkpt lat="44.74876" lon="1.80134">
        <ele>329.008</ele>
        <time>2018-07-31T16:27:21Z</time>
      </trkpt>
      <trkpt lat="44.74826" lon="1.80182">
        <ele>328.929</ele>
        <time>2018-07-31T16:27:01Z</time>
      </trkpt>
      <trkpt lat="44.74798" lon="1.80213">
        <ele>328.794</ele>
        <time>2018-07-31T16:26:41Z</time>
      </trkpt>
      <trkpt lat="44.74786" lon="1.8023">
        <ele>328.238</ele>
        <time>2018-07-31T16:26:21Z</time>
      </trkpt>
      <trkpt lat="44.74785" lon="1.8025">
        <ele>328.077</ele>
        <time>2018-07-31T16:26:01Z</time>
      </trkpt>
      <trkpt lat="44.74778" lon="1.80274">
        <ele>328.029</ele>
        <time>2018-07-31T16:25:41Z</time>
      </trkpt>
      <trkpt lat="44.74782" lon="1.8028">
        <ele>328.268</ele>
        <time>2018-07-31T16:25:21Z</time>
      </trkpt>
      <trkpt lat="44.74786" lon="1.80298">
        <ele>329.061</ele>
        <time>2018-07-31T16:25:01Z</time>
      </trkpt>
      <trkpt lat="44.74781" lon="1.80315">
        <ele>329.134</ele>
        <time>2018-07-31T16:24:41Z</time>
      </trkpt>
      <trkpt lat="44.74781" lon="1.80332">
        <ele>329.181</ele>
        <time>2018-07-31T16:24:21Z</time>
      </trkpt>
      <trkpt lat="44.74787" lon="1.80346">
        <ele>328.761</ele>
        <time>2018-07-31T16:24:01Z</time>
      </trkpt>
      <trkpt lat="44.74817" lon="1.80388">
        <ele>327.517</ele>
        <time>2018-07-31T16:23:41Z</time>
      </trkpt>
      <trkpt lat="44.74845" lon="1.80408">
        <ele>328.708</ele>
        <time>2018-07-31T16:23:21Z</time>
      </trkpt>
      <trkpt lat="44.74853" lon="1.80417">
        <ele>329.43</ele>
        <time>2018-07-31T16:23:01Z</time>
      </trkpt>
      <trkpt lat="44.74859" lon="1.80433">
        <ele>329.325</ele>
        <time>2018-07-31T16:22:41Z</time>
      </trkpt>
      <trkpt lat="44.74867" lon="1.8047">
        <ele>330.269</ele>
        <time>2018-07-31T16:22:21Z</time>
      </trkpt>
      <trkpt lat="44.7487" lon="1.80505">
        <ele>331.128</ele>
        <time>2018-07-31T16:22:01Z</time>
      </trkpt>
      <trkpt lat="44.74866" lon="1.80542">
        <ele>331.28</ele>
        <time>2018-07-31T16:21:41Z</time>
      </trkpt>
      <trkpt lat="44.74858" lon="1.80565">
        <ele>331.449</ele>
        <time>2018-07-31T16:21:21Z</time>
      </trkpt>
      <trkpt lat="44.74851" lon="1.80589">
        <ele>331.842</ele>
        <time>2018-07-31T16:21:01Z</time>
      </trkpt>
      <trkpt lat="44.74847" lon="1.80603">
        <ele>332.235</ele>
        <time>2018-07-31T16:20:41Z</time>
      </trkpt>
      <trkpt lat="44.74847" lon="1.80637">
        <ele>333.418</ele>
        <time>2018-07-31T16:20:21Z</time>
      </trkpt>
      <trkpt lat="44.74847" lon="1.8068">
        <ele>332.598</ele>
        <time>2018-07-31T16:20:01Z</time>
      </trkpt>
      <trkpt lat="44.74846" lon="1.80733">
        <ele>331.117</ele>
        <time>2018-07-31T16:19:41Z</time>
      </trkpt>
      <trkpt lat="44.74848" lon="1.80752">
        <ele>331.108</ele>
        <time>2018-07-31T16:19:21Z</time>
      </trkpt>
      <trkpt lat="44.74863" lon="1.80785">
        <ele>332.923</ele>
        <time>2018-07-31T16:19:01Z</time>
      </trkpt>
      <trkpt lat="44.74871" lon="1.8082">
        <ele>332.898</ele>
        <time>2018-07-31T16:18:41Z</time>
      </trkpt>
      <trkpt lat="44.7487" lon="1.80852">
        <ele>332.852</ele>
        <time>2018-07-31T16:18:21Z</time>
      </trkpt>
      <trkpt lat="44.74867" lon="1.80872">
        <ele>333.061</ele>
        <time>2018-07-31T16:18:01Z</time>
      </trkpt>
      <trkpt lat="44.74851" lon="1.80931">
        <ele>332.523</ele>
        <time>2018-07-31T16:17:41Z</time>
      </trkpt>
      <trkpt lat="44.74846" lon="1.80951">
        <ele>332.992</ele>
        <time>2018-07-31T16:17:21Z</time>
      </trkpt>
      <trkpt lat="44.74834" lon="1.80999">
        <ele>336.045</ele>
        <time>2018-07-31T16:17:01Z</time>
      </trkpt>
      <trkpt lat="44.74823" lon="1.80991">
        <ele>334.358</ele>
        <time>2018-07-31T16:16:41Z</time>
      </trkpt>
      <trkpt lat="44.74804" lon="1.80998">
        <ele>332.471</ele>
        <time>2018-07-31T16:16:21Z</time>
      </trkpt>
      <trkpt lat="44.74788" lon="1.8101">
        <ele>328.941</ele>
        <time>2018-07-31T16:16:01Z</time>
      </trkpt>
      <trkpt lat="44.74773" lon="1.81024">
        <ele>326.215</ele>
        <time>2018-07-31T16:15:41Z</time>
      </trkpt>
      <trkpt lat="44.7477" lon="1.81054">
        <ele>326.508</ele>
        <time>2018-07-31T16:15:21Z</time>
      </trkpt>
      <trkpt lat="44.7477" lon="1.81105">
        <ele>324.969</ele>
        <time>2018-07-31T16:15:01Z</time>
      </trkpt>
      <trkpt lat="44.74755" lon="1.81122">
        <ele>322.694</ele>
        <time>2018-07-31T16:14:41Z</time>
      </trkpt>
      <trkpt lat="44.74741" lon="1.81124">
        <ele>322.328</ele>
        <time>2018-07-31T16:14:21Z</time>
      </trkpt>
      <trkpt lat="44.74726" lon="1.8112">
        <ele>322.597</ele>
        <time>2018-07-31T16:14:01Z</time>
      </trkpt>
      <trkpt lat="44.74714" lon="1.81105">
        <ele>322.679</ele>
        <time>2018-07-31T16:13:41Z</time>
      </trkpt>
      <trkpt lat="44.7471" lon="1.81107">
        <ele>323.068</ele>
        <time>2018-07-31T16:13:21Z</time>
      </trkpt>
      <trkpt lat="44.74698" lon="1.81119">
        <ele>325.631</ele>
        <time>2018-07-31T16:13:01Z</time>
      </trkpt>
      <trkpt lat="44.74693" lon="1.81129">
        <ele>327.774</ele>
        <time>2018-07-31T16:12:41Z</time>
      </trkpt>
      <trkpt lat="44.74691" lon="1.81139">
        <ele>329.344</ele>
        <time>2018-07-31T16:12:21Z</time>
      </trkpt>
      <trkpt lat="44.74691" lon="1.8115">
        <ele>330.105</ele>
        <time>2018-07-31T16:12:01Z</time>
      </trkpt>
      <trkpt lat="44.74697" lon="1.81165">
        <ele>330.415</ele>
        <time>2018-07-31T16:11:41Z</time>
      </trkpt>
      <trkpt lat="44.74708" lon="1.81187">
        <ele>330.308</ele>
        <time>2018-07-31T16:11:21Z</time>
      </trkpt>
      <trkpt lat="44.74709" lon="1.81193">
        <ele>330.846</ele>
        <time>2018-07-31T16:11:01Z</time>
      </trkpt>
      <trkpt lat="44.74707" lon="1.81197">
        <ele>331.671</ele>
        <time>2018-07-31T16:10:41Z</time>
      </trkpt>
      <trkpt lat="44.74705" lon="1.81197">
        <ele>332.145</ele>
        <time>2018-07-31T16:10:21Z</time>
      </trkpt>
      <trkpt lat="44.74689" lon="1.8119">
        <ele>333.614</ele>
        <time>2018-07-31T16:10:01Z</time>
      </trkpt>
      <trkpt lat="44.74683" lon="1.81187">
        <ele>333.586</ele>
        <time>2018-07-31T16:09:41Z</time>
      </trkpt>
      <trkpt lat="44.7467" lon="1.81189">
        <ele>333.845</ele>
        <time>2018-07-31T16:09:21Z</time>
      </trkpt>
      <trkpt lat="44.74666" lon="1.81196">
        <ele>334.188</ele>
        <time>2018-07-31T16:09:01Z</time>
      </trkpt>
      <trkpt lat="44.74665" lon="1.8123">
        <ele>336.321</ele>
        <time>2018-07-31T16:08:41Z</time>
      </trkpt>
      <trkpt lat="44.74666" lon="1.81238">
        <ele>336.523</ele>
        <time>2018-07-31T16:08:21Z</time>
      </trkpt>
      <trkpt lat="44.74684" lon="1.81278">
        <ele>337.083</ele>
        <time>2018-07-31T16:08:01Z</time>
      </trkpt>
      <trkpt lat="44.74692" lon="1.81293">
        <ele>337.511</ele>
        <time>2018-07-31T16:07:41Z</time>
      </trkpt>
      <trkpt lat="44.7472" lon="1.81317">
        <ele>338.408</ele>
        <time>2018-07-31T16:07:21Z</time>
      </trkpt>
      <trkpt lat="44.74736" lon="1.81339">
        <ele>339.074</ele>
        <time>2018-07-31T16:07:01Z</time>
      </trkpt>
      <trkpt lat="44.74753" lon="1.81357">
        <ele>339.089</ele>
        <time>2018-07-31T16:06:41Z</time>
      </trkpt>
      <trkpt lat="44.74767" lon="1.81377">
        <ele>339.053</ele>
        <time>2018-07-31T16:06:21Z</time>
      </trkpt>
      <trkpt lat="44.74806" lon="1.81402">
        <ele>338.492</ele>
        <time>2018-07-31T16:06:01Z</time>
      </trkpt>
      <trkpt lat="44.74811" lon="1.81409">
        <ele>338.194</ele>
        <time>2018-07-31T16:05:41Z</time>
      </trkpt>
      <trkpt lat="44.74812" lon="1.81415">
        <ele>338.273</ele>
        <time>2018-07-31T16:05:21Z</time>
      </trkpt>
      <trkpt lat="44.74811" lon="1.8145">
        <ele>339.656</ele>
        <time>2018-07-31T16:05:01Z</time>
      </trkpt>
      <trkpt lat="44.7481" lon="1.81467">
        <ele>339.789</ele>
        <time>2018-07-31T16:04:41Z</time>
      </trkpt>
      <trkpt lat="44.74808" lon="1.81477">
        <ele>339.963</ele>
        <time>2018-07-31T16:04:21Z</time>
      </trkpt>
      <trkpt lat="44.74804" lon="1.81483">
        <ele>340.144</ele>
        <time>2018-07-31T16:04:01Z</time>
      </trkpt>
      <trkpt lat="44.74795" lon="1.81489">
        <ele>340.418</ele>
        <time>2018-07-31T16:03:41Z</time>
      </trkpt>
      <trkpt lat="44.74792" lon="1.81492">
        <ele>340.508</ele>
        <time>2018-07-31T16:03:21Z</time>
      </trkpt>
      <trkpt lat="44.7478" lon="1.8152">
        <ele>340.328</ele>
        <time>2018-07-31T16:03:01Z</time>
      </trkpt>
      <trkpt lat="44.74771" lon="1.81543">
        <ele>340.393</ele>
        <time>2018-07-31T16:02:41Z</time>
      </trkpt>
      <trkpt lat="44.74765" lon="1.81553">
        <ele>340.477</ele>
        <time>2018-07-31T16:02:21Z</time>
      </trkpt>
      <trkpt lat="44.74751" lon="1.81566">
        <ele>340.486</ele>
        <time>2018-07-31T16:02:01Z</time>
      </trkpt>
      <trkpt lat="44.74728" lon="1.81587">
        <ele>339.698</ele>
        <time>2018-07-31T16:01:41Z</time>
      </trkpt>
      <trkpt lat="44.74728" lon="1.816">
        <ele>340.167</ele>
        <time>2018-07-31T16:01:21Z</time>
      </trkpt>
      <trkpt lat="44.74725" lon="1.81633">
        <ele>340.29</ele>
        <time>2018-07-31T16:01:01Z</time>
      </trkpt>
      <trkpt lat="44.74716" lon="1.81677">
        <ele>339.953</ele>
        <time>2018-07-31T16:00:41Z</time>
      </trkpt>
      <trkpt lat="44.74713" lon="1.81699">
        <ele>340.181</ele>
        <time>2018-07-31T16:00:21Z</time>
      </trkpt>
      <trkpt lat="44.74707" lon="1.81752">
        <ele>340.461</ele>
        <time>2018-07-31T16:00:01Z</time>
      </trkpt>
      <trkpt lat="44.74698" lon="1.81792">
        <ele>340.817</ele>
        <time>2018-07-31T15:59:41Z</time>
      </trkpt>
      <trkpt lat="44.74693" lon="1.8181">
        <ele>341.208</ele>
        <time>2018-07-31T15:59:21Z</time>
      </trkpt>
      <trkpt lat="44.74688" lon="1.8185">
        <ele>343.58</ele>
        <time>2018-07-31T15:59:01Z</time>
      </trkpt>
      <trkpt lat="44.74683" lon="1.81886">
        <ele>347.135</ele>
        <time>2018-07-31T15:58:41Z</time>
      </trkpt>
      <trkpt lat="44.74682" lon="1.81894">
        <ele>347.659</ele>
        <time>2018-07-31T15:58:21Z</time>
      </trkpt>
      <trkpt lat="44.74685" lon="1.8191">
        <ele>348.118</ele>
        <time>2018-07-31T15:58:01Z</time>
      </trkpt>
      <trkpt lat="44.74691" lon="1.81923">
        <ele>348.17</ele>
        <time>2018-07-31T15:57:41Z</time>
      </trkpt>
      <trkpt lat="44.74707" lon="1.81966">
        <ele>348.449</ele>
        <time>2018-07-31T15:57:21Z</time>
      </trkpt>
      <trkpt lat="44.74727" lon="1.81995">
        <ele>348.512</ele>
        <time>2018-07-31T15:57:01Z</time>
      </trkpt>
      <trkpt lat="44.74734" lon="1.82003">
        <ele>348.975</ele>
        <time>2018-07-31T15:56:41Z</time>
      </trkpt>
      <trkpt lat="44.74745" lon="1.82023">
        <ele>349.833</ele>
        <time>2018-07-31T15:56:21Z</time>
      </trkpt>
      <trkpt lat="44.74747" lon="1.82035">
        <ele>350.123</ele>
        <time>2018-07-31T15:56:01Z</time>
      </trkpt>
      <trkpt lat="44.74747" lon="1.82049">
        <ele>350.515</ele>
        <time>2018-07-31T15:55:41Z</time>
      </trkpt>
      <trkpt lat="44.74748" lon="1.82058">
        <ele>350.908</ele>
        <time>2018-07-31T15:55:21Z</time>
      </trkpt>
      <trkpt lat="44.74752" lon="1.82068">
        <ele>351.065</ele>
        <time>2018-07-31T15:55:01Z</time>
      </trkpt>
      <trkpt lat="44.74757" lon="1.82083">
        <ele>351.03</ele>
        <time>2018-07-31T15:54:41Z</time>
      </trkpt>
      <trkpt lat="44.74758" lon="1.82095">
        <ele>350.614</ele>
        <time>2018-07-31T15:54:21Z</time>
      </trkpt>
      <trkpt lat="44.74758" lon="1.82104">
        <ele>350.253</ele>
        <time>2018-07-31T15:54:01Z</time>
      </trkpt>
      <trkpt lat="44.74754" lon="1.82119">
        <ele>349.555</ele>
        <time>2018-07-31T15:53:41Z</time>
      </trkpt>
      <trkpt lat="44.74748" lon="1.82146">
        <ele>347.724</ele>
        <time>2018-07-31T15:53:21Z</time>
      </trkpt>
      <trkpt lat="44.74743" lon="1.82194">
        <ele>346.897</ele>
        <time>2018-07-31T15:53:01Z</time>
      </trkpt>
      <trkpt lat="44.74741" lon="1.82209">
        <ele>346.58</ele>
        <time>2018-07-31T15:52:41Z</time>
      </trkpt>
      <trkpt lat="44.74741" lon="1.82224">
        <ele>346.442</ele>
        <time>2018-07-31T15:52:21Z</time>
      </trkpt>
      <trkpt lat="44.74742" lon="1.82234">
        <ele>346.822</ele>
        <time>2018-07-31T15:52:01Z</time>
      </trkpt>
      <trkpt lat="44.74746" lon="1.82248">
        <ele>347.614</ele>
        <time>2018-07-31T15:51:41Z</time>
      </trkpt>
      <trkpt lat="44.74761" lon="1.82275">
        <ele>350.108</ele>
        <time>2018-07-31T15:51:21Z</time>
      </trkpt>
      <trkpt lat="44.74808" lon="1.82334">
        <ele>353.856</ele>
        <time>2018-07-31T15:51:01Z</time>
      </trkpt>
      <trkpt lat="44.74837" lon="1.82365">
        <ele>349.951</ele>
        <time>2018-07-31T15:50:41Z</time>
      </trkpt>
      <trkpt lat="44.74846" lon="1.82377">
        <ele>349.515</ele>
        <time>2018-07-31T15:50:21Z</time>
      </trkpt>
      <trkpt lat="44.74851" lon="1.82387">
        <ele>349.434</ele>
        <time>2018-07-31T15:50:01Z</time>
      </trkpt>
      <trkpt lat="44.74807" lon="1.82442">
        <ele>351.976</ele>
        <time>2018-07-31T15:49:41Z</time>
      </trkpt>
      <trkpt lat="44.74789" lon="1.82464">
        <ele>350.825</ele>
        <time>2018-07-31T15:49:21Z</time>
      </trkpt>
      <trkpt lat="44.74771" lon="1.82479">
        <ele>350.028</ele>
        <time>2018-07-31T15:49:01Z</time>
      </trkpt>
      <trkpt lat="44.74733" lon="1.82499">
        <ele>350.021</ele>
        <time>2018-07-31T15:48:41Z</time>
      </trkpt>
      <trkpt lat="44.74667" lon="1.82532">
        <ele>349.947</ele>
        <time>2018-07-31T15:48:21Z</time>
      </trkpt>
      <trkpt lat="44.74643" lon="1.82541">
        <ele>349.529</ele>
        <time>2018-07-31T15:48:01Z</time>
      </trkpt>
      <trkpt lat="44.74616" lon="1.82559">
        <ele>350.521</ele>
        <time>2018-07-31T15:47:41Z</time>
      </trkpt>
      <trkpt lat="44.74591" lon="1.82564">
        <ele>352.108</ele>
        <time>2018-07-31T15:47:21Z</time>
      </trkpt>
      <trkpt lat="44.74521" lon="1.82587">
        <ele>358.066</ele>
        <time>2018-07-31T15:47:01Z</time>
      </trkpt>
      <trkpt lat="44.74483" lon="1.82589">
        <ele>360.931</ele>
        <time>2018-07-31T15:46:41Z</time>
      </trkpt>
      <trkpt lat="44.74453" lon="1.82582">
        <ele>361.075</ele>
        <time>2018-07-31T15:46:21Z</time>
      </trkpt>
      <trkpt lat="44.74434" lon="1.82571">
        <ele>360.664</ele>
        <time>2018-07-31T15:46:01Z</time>
      </trkpt>
      <trkpt lat="44.74408" lon="1.8254">
        <ele>360.356</ele>
        <time>2018-07-31T15:45:41Z</time>
      </trkpt>
      <trkpt lat="44.74394" lon="1.82526">
        <ele>360.765</ele>
        <time>2018-07-31T15:45:21Z</time>
      </trkpt>
      <trkpt lat="44.74371" lon="1.82511">
        <ele>360.338</ele>
        <time>2018-07-31T15:45:01Z</time>
      </trkpt>
      <trkpt lat="44.74332" lon="1.82498">
        <ele>357.621</ele>
        <time>2018-07-31T15:44:41Z</time>
      </trkpt>
      <trkpt lat="44.74309" lon="1.82513">
        <ele>356.715</ele>
        <time>2018-07-31T15:44:21Z</time>
      </trkpt>
      <trkpt lat="44.74297" lon="1.82523">
        <ele>356.565</ele>
        <time>2018-07-31T15:44:01Z</time>
      </trkpt>
      <trkpt lat="44.74267" lon="1.82545">
        <ele>355.211</ele>
        <time>2018-07-31T15:43:41Z</time>
      </trkpt>
      <trkpt lat="44.74255" lon="1.82557">
        <ele>353.908</ele>
        <time>2018-07-31T15:43:21Z</time>
      </trkpt>
      <trkpt lat="44.74234" lon="1.82578">
        <ele>352.783</ele>
        <time>2018-07-31T15:43:01Z</time>
      </trkpt>
      <trkpt lat="44.74199" lon="1.82612">
        <ele>352.488</ele>
        <time>2018-07-31T15:42:41Z</time>
      </trkpt>
      <trkpt lat="44.74182" lon="1.8263">
        <ele>352.962</ele>
        <time>2018-07-31T15:42:21Z</time>
      </trkpt>
      <trkpt lat="44.74174" lon="1.82633">
        <ele>352.811</ele>
        <time>2018-07-31T15:42:01Z</time>
      </trkpt>
      <trkpt lat="44.74145" lon="1.82637">
        <ele>352.963</ele>
        <time>2018-07-31T15:41:41Z</time>
      </trkpt>
      <trkpt lat="44.741" lon="1.82655">
        <ele>351.472</ele>
        <time>2018-07-31T15:41:21Z</time>
      </trkpt>
      <trkpt lat="44.74089" lon="1.8265">
        <ele>350.745</ele>
        <time>2018-07-31T15:41:01Z</time>
      </trkpt>
      <trkpt lat="44.74062" lon="1.82656">
        <ele>348.088</ele>
        <time>2018-07-31T15:40:41Z</time>
      </trkpt>
      <trkpt lat="44.74043" lon="1.82646">
        <ele>345.625</ele>
        <time>2018-07-31T15:40:21Z</time>
      </trkpt>
      <trkpt lat="44.74034" lon="1.82645">
        <ele>344.926</ele>
        <time>2018-07-31T15:40:01Z</time>
      </trkpt>
      <trkpt lat="44.74013" lon="1.8265">
        <ele>343.508</ele>
        <time>2018-07-31T15:39:41Z</time>
      </trkpt>
      <trkpt lat="44.73997" lon="1.82659">
        <ele>342.208</ele>
        <time>2018-07-31T15:39:21Z</time>
      </trkpt>
      <trkpt lat="44.73989" lon="1.82665">
        <ele>341.074</ele>
        <time>2018-07-31T15:39:01Z</time>
      </trkpt>
      <trkpt lat="44.73985" lon="1.82677">
        <ele>340.959</ele>
        <time>2018-07-31T15:38:41Z</time>
      </trkpt>
      <trkpt lat="44.73983" lon="1.8269">
        <ele>341.523</ele>
        <time>2018-07-31T15:38:21Z</time>
      </trkpt>
      <trkpt lat="44.73974" lon="1.82709">
        <ele>341.182</ele>
        <time>2018-07-31T15:38:01Z</time>
      </trkpt>
      <trkpt lat="44.73966" lon="1.82728">
        <ele>340.024</ele>
        <time>2018-07-31T15:37:41Z</time>
      </trkpt>
      <trkpt lat="44.73955" lon="1.82763">
        <ele>336.173</ele>
        <time>2018-07-31T15:37:21Z</time>
      </trkpt>
      <trkpt lat="44.73954" lon="1.82779">
        <ele>334.236</ele>
        <time>2018-07-31T15:37:01Z</time>
      </trkpt>
      <trkpt lat="44.7396" lon="1.82792">
        <ele>332.719</ele>
        <time>2018-07-31T15:36:41Z</time>
      </trkpt>
      <trkpt lat="44.73964" lon="1.82798">
        <ele>331.945</ele>
        <time>2018-07-31T15:36:21Z</time>
      </trkpt>
      <trkpt lat="44.7397" lon="1.82831">
        <ele>327.047</ele>
        <time>2018-07-31T15:36:01Z</time>
      </trkpt>
      <trkpt lat="44.73972" lon="1.82861">
        <ele>324.011</ele>
        <time>2018-07-31T15:35:41Z</time>
      </trkpt>
      <trkpt lat="44.73972" lon="1.82888">
        <ele>323.008</ele>
        <time>2018-07-31T15:35:21Z</time>
      </trkpt>
      <trkpt lat="44.74004" lon="1.8295">
        <ele>324.126</ele>
        <time>2018-07-31T15:35:01Z</time>
      </trkpt>
      <trkpt lat="44.7403" lon="1.83002">
        <ele>324.151</ele>
        <time>2018-07-31T15:34:41Z</time>
      </trkpt>
      <trkpt lat="44.74041" lon="1.83037">
        <ele>322.565</ele>
        <time>2018-07-31T15:34:21Z</time>
      </trkpt>
      <trkpt lat="44.74066" lon="1.83096">
        <ele>320.694</ele>
        <time>2018-07-31T15:34:01Z</time>
      </trkpt>
      <trkpt lat="44.74155" lon="1.83252">
        <ele>315.356</ele>
        <time>2018-07-31T15:33:41Z</time>
      </trkpt>
      <trkpt lat="44.74177" lon="1.83298">
        <ele>315.345</ele>
        <time>2018-07-31T15:33:21Z</time>
      </trkpt>
      <trkpt lat="44.74179" lon="1.83304">
        <ele>314.988</ele>
        <time>2018-07-31T15:33:01Z</time>
      </trkpt>
      <trkpt lat="44.74166" lon="1.83315">
        <ele>312.721</ele>
        <time>2018-07-31T15:32:41Z</time>
      </trkpt>
      <trkpt lat="44.7417" lon="1.83341">
        <ele>312.286</ele>
        <time>2018-07-31T15:32:21Z</time>
      </trkpt>
      <trkpt lat="44.74159" lon="1.83371">
        <ele>312.16</ele>
        <time>2018-07-31T15:32:01Z</time>
      </trkpt>
      <trkpt lat="44.74154" lon="1.83406">
        <ele>313.326</ele>
        <time>2018-07-31T15:31:41Z</time>
      </trkpt>
      <trkpt lat="44.74157" lon="1.8344">
        <ele>315.608</ele>
        <time>2018-07-31T15:31:21Z</time>
      </trkpt>
      <trkpt lat="44.74152" lon="1.8345">
        <ele>317.87</ele>
        <time>2018-07-31T15:31:01Z</time>
      </trkpt>
      <trkpt lat="44.7414" lon="1.83459">
        <ele>321.325</ele>
        <time>2018-07-31T15:30:41Z</time>
      </trkpt>
      <trkpt lat="44.74132" lon="1.83468">
        <ele>324.179</ele>
        <time>2018-07-31T15:30:21Z</time>
      </trkpt>
      <trkpt lat="44.7413" lon="1.83482">
        <ele>325.548</ele>
        <time>2018-07-31T15:30:01Z</time>
      </trkpt>
      <trkpt lat="44.74125" lon="1.83493">
        <ele>327.17</ele>
        <time>2018-07-31T15:29:41Z</time>
      </trkpt>
      <trkpt lat="44.74122" lon="1.83496">
        <ele>327.929</ele>
        <time>2018-07-31T15:29:21Z</time>
      </trkpt>
      <trkpt lat="44.74116" lon="1.835">
        <ele>329.082</ele>
        <time>2018-07-31T15:29:01Z</time>
      </trkpt>
      <trkpt lat="44.74106" lon="1.83508">
        <ele>330.915</ele>
        <time>2018-07-31T15:28:41Z</time>
      </trkpt>
      <trkpt lat="44.74098" lon="1.83517">
        <ele>332.457</ele>
        <time>2018-07-31T15:28:21Z</time>
      </trkpt>
      <trkpt lat="44.74085" lon="1.83527">
        <ele>334.6</ele>
        <time>2018-07-31T15:28:01Z</time>
      </trkpt>
      <trkpt lat="44.7407" lon="1.83539">
        <ele>337.62</ele>
        <time>2018-07-31T15:27:41Z</time>
      </trkpt>
      <trkpt lat="44.74061" lon="1.8355">
        <ele>339.208</ele>
        <time>2018-07-31T15:27:21Z</time>
      </trkpt>
      <trkpt lat="44.74043" lon="1.83612">
        <ele>339.427</ele>
        <time>2018-07-31T15:27:01Z</time>
      </trkpt>
      <trkpt lat="44.74052" lon="1.83655">
        <ele>336.542</ele>
        <time>2018-07-31T15:26:41Z</time>
      </trkpt>
      <trkpt lat="44.74056" lon="1.83678">
        <ele>335.126</ele>
        <time>2018-07-31T15:26:21Z</time>
      </trkpt>
      <trkpt lat="44.74091" lon="1.83719">
        <ele>328.185</ele>
        <time>2018-07-31T15:26:01Z</time>
      </trkpt>
      <trkpt lat="44.74119" lon="1.83741">
        <ele>329.577</ele>
        <time>2018-07-31T15:25:41Z</time>
      </trkpt>
      <trkpt lat="44.74145" lon="1.83761">
        <ele>332.536</ele>
        <time>2018-07-31T15:25:21Z</time>
      </trkpt>
      <trkpt lat="44.74165" lon="1.83776">
        <ele>333.079</ele>
        <time>2018-07-31T15:25:01Z</time>
      </trkpt>
      <trkpt lat="44.74166" lon="1.83802">
        <ele>333.052</ele>
        <time>2018-07-31T15:24:41Z</time>
      </trkpt>
      <trkpt lat="44.74164" lon="1.83823">
        <ele>333.192</ele>
        <time>2018-07-31T15:24:21Z</time>
      </trkpt>
      <trkpt lat="44.74159" lon="1.83843">
        <ele>333.673</ele>
        <time>2018-07-31T15:24:01Z</time>
      </trkpt>
      <trkpt lat="44.74151" lon="1.83866">
        <ele>334.42</ele>
        <time>2018-07-31T15:23:41Z</time>
      </trkpt>
      <trkpt lat="44.74148" lon="1.83881">
        <ele>334.308</ele>
        <time>2018-07-31T15:23:21Z</time>
      </trkpt>
      <trkpt lat="44.7415" lon="1.83896">
        <ele>333.251</ele>
        <time>2018-07-31T15:23:01Z</time>
      </trkpt>
      <trkpt lat="44.74153" lon="1.83909">
        <ele>331.786</ele>
        <time>2018-07-31T15:22:41Z</time>
      </trkpt>
      <trkpt lat="44.74152" lon="1.83914">
        <ele>331.31</ele>
        <time>2018-07-31T15:22:21Z</time>
      </trkpt>
      <trkpt lat="44.74154" lon="1.8392">
        <ele>330.569</ele>
        <time>2018-07-31T15:22:01Z</time>
      </trkpt>
      <trkpt lat="44.74158" lon="1.83926">
        <ele>329.221</ele>
        <time>2018-07-31T15:21:41Z</time>
      </trkpt>
      <trkpt lat="44.74154" lon="1.83942">
        <ele>328.43</ele>
        <time>2018-07-31T15:21:21Z</time>
      </trkpt>
      <trkpt lat="44.7415" lon="1.83978">
        <ele>326.693</ele>
        <time>2018-07-31T15:21:01Z</time>
      </trkpt>
      <trkpt lat="44.74142" lon="1.84">
        <ele>328.056</ele>
        <time>2018-07-31T15:20:41Z</time>
      </trkpt>
      <trkpt lat="44.74142" lon="1.84023">
        <ele>327.428</ele>
        <time>2018-07-31T15:20:21Z</time>
      </trkpt>
      <trkpt lat="44.74153" lon="1.84054">
        <ele>325.989</ele>
        <time>2018-07-31T15:20:01Z</time>
      </trkpt>
      <trkpt lat="44.74173" lon="1.8408">
        <ele>323.717</ele>
        <time>2018-07-31T15:19:41Z</time>
      </trkpt>
      <trkpt lat="44.74205" lon="1.84104">
        <ele>322.808</ele>
        <time>2018-07-31T15:19:21Z</time>
      </trkpt>
      <trkpt lat="44.74249" lon="1.84149">
        <ele>324.674</ele>
        <time>2018-07-31T15:19:01Z</time>
      </trkpt>
      <trkpt lat="44.74279" lon="1.8417">
        <ele>318.119</ele>
        <time>2018-07-31T15:18:41Z</time>
      </trkpt>
      <trkpt lat="44.74321" lon="1.8419">
        <ele>319.453</ele>
        <time>2018-07-31T15:18:21Z</time>
      </trkpt>
      <trkpt lat="44.74356" lon="1.8422">
        <ele>321.882</ele>
        <time>2018-07-31T15:18:01Z</time>
      </trkpt>
      <trkpt lat="44.74382" lon="1.84249">
        <ele>322.234</ele>
        <time>2018-07-31T15:17:41Z</time>
      </trkpt>
      <trkpt lat="44.74412" lon="1.84291">
        <ele>323.413</ele>
        <time>2018-07-31T15:17:21Z</time>
      </trkpt>
      <trkpt lat="44.74426" lon="1.8431">
        <ele>323.596</ele>
        <time>2018-07-31T15:17:01Z</time>
      </trkpt>
      <trkpt lat="44.74439" lon="1.84334">
        <ele>324.119</ele>
        <time>2018-07-31T15:16:41Z</time>
      </trkpt>
      <trkpt lat="44.74476" lon="1.84424">
        <ele>333.782</ele>
        <time>2018-07-31T15:16:21Z</time>
      </trkpt>
      <trkpt lat="44.74479" lon="1.84448">
        <ele>335.743</ele>
        <time>2018-07-31T15:16:01Z</time>
      </trkpt>
      <trkpt lat="44.74477" lon="1.84475">
        <ele>334.817</ele>
        <time>2018-07-31T15:15:41Z</time>
      </trkpt>
      <trkpt lat="44.74476" lon="1.84492">
        <ele>333.708</ele>
        <time>2018-07-31T15:15:21Z</time>
      </trkpt>
      <trkpt lat="44.74488" lon="1.84543">
        <ele>331.59</ele>
        <time>2018-07-31T15:15:01Z</time>
      </trkpt>
      <trkpt lat="44.74487" lon="1.84548">
        <ele>331.395</ele>
        <time>2018-07-31T15:14:41Z</time>
      </trkpt>
      <trkpt lat="44.74476" lon="1.84573">
        <ele>331.659</ele>
        <time>2018-07-31T15:14:21Z</time>
      </trkpt>
      <trkpt lat="44.74467" lon="1.84594">
        <ele>332.788</ele>
        <time>2018-07-31T15:14:01Z</time>
      </trkpt>
      <trkpt lat="44.7446" lon="1.84604">
        <ele>333.55</ele>
        <time>2018-07-31T15:13:41Z</time>
      </trkpt>
      <trkpt lat="44.74457" lon="1.84613">
        <ele>334.149</ele>
        <time>2018-07-31T15:13:21Z</time>
      </trkpt>
      <trkpt lat="44.74439" lon="1.84651">
        <ele>336.422</ele>
        <time>2018-07-31T15:13:01Z</time>
      </trkpt>
      <trkpt lat="44.74457" lon="1.84719">
        <ele>339.815</ele>
        <time>2018-07-31T15:12:41Z</time>
      </trkpt>
      <trkpt lat="44.74476" lon="1.84789">
        <ele>342.868</ele>
        <time>2018-07-31T15:12:21Z</time>
      </trkpt>
      <trkpt lat="44.74494" lon="1.84847">
        <ele>344.842</ele>
        <time>2018-07-31T15:12:01Z</time>
      </trkpt>
      <trkpt lat="44.74503" lon="1.8487">
        <ele>344.926</ele>
        <time>2018-07-31T15:11:41Z</time>
      </trkpt>
      <trkpt lat="44.74534" lon="1.84907">
        <ele>343.908</ele>
        <time>2018-07-31T15:11:21Z</time>
      </trkpt>
      <trkpt lat="44.74519" lon="1.84967">
        <ele>346.058</ele>
        <time>2018-07-31T15:11:01Z</time>
      </trkpt>
      <trkpt lat="44.74492" lon="1.85054">
        <ele>347.413</ele>
        <time>2018-07-31T15:10:41Z</time>
      </trkpt>
      <trkpt lat="44.74455" lon="1.85147">
        <ele>349.677</ele>
        <time>2018-07-31T15:10:21Z</time>
      </trkpt>
      <trkpt lat="44.74443" lon="1.85186">
        <ele>350.076</ele>
        <time>2018-07-31T15:10:01Z</time>
      </trkpt>
      <trkpt lat="44.74426" lon="1.85229">
        <ele>348.478</ele>
        <time>2018-07-31T15:09:41Z</time>
      </trkpt>
      <trkpt lat="44.74401" lon="1.85257">
        <ele>348.517</ele>
        <time>2018-07-31T15:09:21Z</time>
      </trkpt>
      <trkpt lat="44.74376" lon="1.85289">
        <ele>349.39</ele>
        <time>2018-07-31T15:09:01Z</time>
      </trkpt>
      <trkpt lat="44.74348" lon="1.85331">
        <ele>348.193</ele>
        <time>2018-07-31T15:08:41Z</time>
      </trkpt>
      <trkpt lat="44.74323" lon="1.85381">
        <ele>347.941</ele>
        <time>2018-07-31T15:08:21Z</time>
      </trkpt>
      <trkpt lat="44.74308" lon="1.85407">
        <ele>348.881</ele>
        <time>2018-07-31T15:08:01Z</time>
      </trkpt>
      <trkpt lat="44.7429" lon="1.8544">
        <ele>348.709</ele>
        <time>2018-07-31T15:07:41Z</time>
      </trkpt>
      <trkpt lat="44.74281" lon="1.85464">
        <ele>348.208</ele>
        <time>2018-07-31T15:07:21Z</time>
      </trkpt>
      <trkpt lat="44.74274" lon="1.85488">
        <ele>348.016</ele>
        <time>2018-07-31T15:07:01Z</time>
      </trkpt>
      <trkpt lat="44.74265" lon="1.85499">
        <ele>348.441</ele>
        <time>2018-07-31T15:06:41Z</time>
      </trkpt>
      <trkpt lat="44.7425" lon="1.85503">
        <ele>349.135</ele>
        <time>2018-07-31T15:06:21Z</time>
      </trkpt>
      <trkpt lat="44.74236" lon="1.85513">
        <ele>348.914</ele>
        <time>2018-07-31T15:06:01Z</time>
      </trkpt>
      <trkpt lat="44.7422" lon="1.8553">
        <ele>348.966</ele>
        <time>2018-07-31T15:05:41Z</time>
      </trkpt>
      <trkpt lat="44.74192" lon="1.85577">
        <ele>345.775</ele>
        <time>2018-07-31T15:05:21Z</time>
      </trkpt>
      <trkpt lat="44.74167" lon="1.85637">
        <ele>342.018</ele>
        <time>2018-07-31T15:05:01Z</time>
      </trkpt>
      <trkpt lat="44.74164" lon="1.85644">
        <ele>342.091</ele>
        <time>2018-07-31T15:04:41Z</time>
      </trkpt>
      <trkpt lat="44.74156" lon="1.85652">
        <ele>341.711</ele>
        <time>2018-07-31T15:04:21Z</time>
      </trkpt>
      <trkpt lat="44.74147" lon="1.85655">
        <ele>341.121</ele>
        <time>2018-07-31T15:04:01Z</time>
      </trkpt>
      <trkpt lat="44.7412" lon="1.85663">
        <ele>341.503</ele>
        <time>2018-07-31T15:03:41Z</time>
      </trkpt>
      <trkpt lat="44.74099" lon="1.85677">
        <ele>342.208</ele>
        <time>2018-07-31T15:03:21Z</time>
      </trkpt>
      <trkpt lat="44.74054" lon="1.85696">
        <ele>345.193</ele>
        <time>2018-07-31T15:03:01Z</time>
      </trkpt>
      <trkpt lat="44.74005" lon="1.85718">
        <ele>350.498</ele>
        <time>2018-07-31T15:02:41Z</time>
      </trkpt>
      <trkpt lat="44.73991" lon="1.85729">
        <ele>352.352</ele>
        <time>2018-07-31T15:02:21Z</time>
      </trkpt>
      <trkpt lat="44.73983" lon="1.85739">
        <ele>353.411</ele>
        <time>2018-07-31T15:02:01Z</time>
      </trkpt>
      <trkpt lat="44.73946" lon="1.85796">
        <ele>355.283</ele>
        <time>2018-07-31T15:01:41Z</time>
      </trkpt>
      <trkpt lat="44.73896" lon="1.85864">
        <ele>360.672</ele>
        <time>2018-07-31T15:01:21Z</time>
      </trkpt>
      <trkpt lat="44.73873" lon="1.85885">
        <ele>363.355</ele>
        <time>2018-07-31T15:01:01Z</time>
      </trkpt>
      <trkpt lat="44.73825" lon="1.85909">
        <ele>362.738</ele>
        <time>2018-07-31T15:00:41Z</time>
      </trkpt>
      <trkpt lat="44.73797" lon="1.85925">
        <ele>361.987</ele>
        <time>2018-07-31T15:00:21Z</time>
      </trkpt>
      <trkpt lat="44.73772" lon="1.85931">
        <ele>362.442</ele>
        <time>2018-07-31T15:00:01Z</time>
      </trkpt>
      <trkpt lat="44.73734" lon="1.85951">
        <ele>367.226</ele>
        <time>2018-07-31T14:59:41Z</time>
      </trkpt>
      <trkpt lat="44.73704" lon="1.8598">
        <ele>369.808</ele>
        <time>2018-07-31T14:59:21Z</time>
      </trkpt>
      <trkpt lat="44.73649" lon="1.86056">
        <ele>369.18</ele>
        <time>2018-07-31T14:59:01Z</time>
      </trkpt>
      <trkpt lat="44.73625" lon="1.86103">
        <ele>368.715</ele>
        <time>2018-07-31T14:58:41Z</time>
      </trkpt>
      <trkpt lat="44.73613" lon="1.86123">
        <ele>368.589</ele>
        <time>2018-07-31T14:58:21Z</time>
      </trkpt>
      <trkpt lat="44.73594" lon="1.86169">
        <ele>368.418</ele>
        <time>2018-07-31T14:58:01Z</time>
      </trkpt>
      <trkpt lat="44.73614" lon="1.86186">
        <ele>369.08</ele>
        <time>2018-07-31T14:57:41Z</time>
      </trkpt>
      <trkpt lat="44.73658" lon="1.86221">
        <ele>367.049</ele>
        <time>2018-07-31T14:57:21Z</time>
      </trkpt>
      <trkpt lat="44.73674" lon="1.86236">
        <ele>366.452</ele>
        <time>2018-07-31T14:57:01Z</time>
      </trkpt>
      <trkpt lat="44.7368" lon="1.86251">
        <ele>366.035</ele>
        <time>2018-07-31T14:56:41Z</time>
      </trkpt>
      <trkpt lat="44.73696" lon="1.8631">
        <ele>365.035</ele>
        <time>2018-07-31T14:56:21Z</time>
      </trkpt>
      <trkpt lat="44.73704" lon="1.86353">
        <ele>365.086</ele>
        <time>2018-07-31T14:56:01Z</time>
      </trkpt>
      <trkpt lat="44.73696" lon="1.86407">
        <ele>364.014</ele>
        <time>2018-07-31T14:55:41Z</time>
      </trkpt>
      <trkpt lat="44.73688" lon="1.8648">
        <ele>365.808</ele>
        <time>2018-07-31T14:55:21Z</time>
      </trkpt>
      <trkpt lat="44.73678" lon="1.86525">
        <ele>367.265</ele>
        <time>2018-07-31T14:55:01Z</time>
      </trkpt>
      <trkpt lat="44.73659" lon="1.86649">
        <ele>376.19</ele>
        <time>2018-07-31T14:54:41Z</time>
      </trkpt>
      <trkpt lat="44.73658" lon="1.86703">
        <ele>378.724</ele>
        <time>2018-07-31T14:54:21Z</time>
      </trkpt>
      <trkpt lat="44.73639" lon="1.86822">
        <ele>376.173</ele>
        <time>2018-07-31T14:54:01Z</time>
      </trkpt>
      <trkpt lat="44.73636" lon="1.86862">
        <ele>377.425</ele>
        <time>2018-07-31T14:53:41Z</time>
      </trkpt>
      <trkpt lat="44.73628" lon="1.869">
        <ele>381.144</ele>
        <time>2018-07-31T14:53:21Z</time>
      </trkpt>
      <trkpt lat="44.73614" lon="1.87029">
        <ele>390.587</ele>
        <time>2018-07-31T14:53:01Z</time>
      </trkpt>
      <trkpt lat="44.73604" lon="1.87102">
        <ele>392.53</ele>
        <time>2018-07-31T14:52:41Z</time>
      </trkpt>
      <trkpt lat="44.73591" lon="1.87172">
        <ele>393.518</ele>
        <time>2018-07-31T14:52:21Z</time>
      </trkpt>
      <trkpt lat="44.73582" lon="1.8723">
        <ele>396.198</ele>
        <time>2018-07-31T14:52:01Z</time>
      </trkpt>
      <trkpt lat="44.73581" lon="1.87271">
        <ele>396.917</ele>
        <time>2018-07-31T14:51:41Z</time>
      </trkpt>
      <trkpt lat="44.73574" lon="1.87321">
        <ele>397.608</ele>
        <time>2018-07-31T14:51:21Z</time>
      </trkpt>
      <trkpt lat="44.73568" lon="1.87372">
        <ele>400.113</ele>
        <time>2018-07-31T14:51:01Z</time>
      </trkpt>
      <trkpt lat="44.73566" lon="1.8739">
        <ele>401.178</ele>
        <time>2018-07-31T14:50:41Z</time>
      </trkpt>
      <trkpt lat="44.73563" lon="1.87439">
        <ele>402.012</ele>
        <time>2018-07-31T14:50:21Z</time>
      </trkpt>
      <trkpt lat="44.7356" lon="1.87465">
        <ele>401.981</ele>
        <time>2018-07-31T14:50:01Z</time>
      </trkpt>
      <trkpt lat="44.73555" lon="1.87485">
        <ele>401.663</ele>
        <time>2018-07-31T14:49:41Z</time>
      </trkpt>
      <trkpt lat="44.73552" lon="1.87491">
        <ele>401.432</ele>
        <time>2018-07-31T14:49:21Z</time>
      </trkpt>
      <trkpt lat="44.73536" lon="1.87467">
        <ele>404.425</ele>
        <time>2018-07-31T14:49:01Z</time>
      </trkpt>
      <trkpt lat="44.73507" lon="1.87426">
        <ele>408.668</ele>
        <time>2018-07-31T14:48:41Z</time>
      </trkpt>
      <trkpt lat="44.73491" lon="1.87417">
        <ele>409.991</ele>
        <time>2018-07-31T14:48:21Z</time>
      </trkpt>
      <trkpt lat="44.7347" lon="1.87408">
        <ele>410.881</ele>
        <time>2018-07-31T14:48:01Z</time>
      </trkpt>
      <trkpt lat="44.73406" lon="1.87398">
        <ele>414.419</ele>
        <time>2018-07-31T14:47:41Z</time>
      </trkpt>
      <trkpt lat="44.73383" lon="1.87402">
        <ele>415.208</ele>
        <time>2018-07-31T14:47:21Z</time>
      </trkpt>
      <trkpt lat="44.73358" lon="1.87412">
        <ele>415.921</ele>
        <time>2018-07-31T14:47:01Z</time>
      </trkpt>
      <trkpt lat="44.73334" lon="1.87428">
        <ele>414.696</ele>
        <time>2018-07-31T14:46:41Z</time>
      </trkpt>
      <trkpt lat="44.73264" lon="1.87473">
        <ele>412.07</ele>
        <time>2018-07-31T14:46:21Z</time>
      </trkpt>
      <trkpt lat="44.73193" lon="1.87527">
        <ele>412.879</ele>
        <time>2018-07-31T14:46:01Z</time>
      </trkpt>
      <trkpt lat="44.73157" lon="1.87549">
        <ele>411.011</ele>
        <time>2018-07-31T14:45:41Z</time>
      </trkpt>
      <trkpt lat="44.73083" lon="1.87605">
        <ele>408.05</ele>
        <time>2018-07-31T14:45:21Z</time>
      </trkpt>
      <trkpt lat="44.73015" lon="1.8764">
        <ele>404.693</ele>
        <time>2018-07-31T14:45:01Z</time>
      </trkpt>
      <trkpt lat="44.72973" lon="1.87666">
        <ele>403.036</ele>
        <time>2018-07-31T14:44:41Z</time>
      </trkpt>
      <trkpt lat="44.72899" lon="1.87712">
        <ele>398.433</ele>
        <time>2018-07-31T14:44:21Z</time>
      </trkpt>
      <trkpt lat="44.72847" lon="1.87746">
        <ele>395.123</ele>
        <time>2018-07-31T14:44:01Z</time>
      </trkpt>
      <trkpt lat="44.72834" lon="1.87749">
        <ele>394.115</ele>
        <time>2018-07-31T14:43:41Z</time>
      </trkpt>
      <trkpt lat="44.72814" lon="1.87746">
        <ele>393.408</ele>
        <time>2018-07-31T14:43:21Z</time>
      </trkpt>
      <trkpt lat="44.7279" lon="1.87741">
        <ele>391.335</ele>
        <time>2018-07-31T14:43:01Z</time>
      </trkpt>
      <trkpt lat="44.72767" lon="1.87739">
        <ele>388.57</ele>
        <time>2018-07-31T14:42:41Z</time>
      </trkpt>
      <trkpt lat="44.72741" lon="1.87736">
        <ele>385.244</ele>
        <time>2018-07-31T14:42:21Z</time>
      </trkpt>
      <trkpt lat="44.72726" lon="1.87738">
        <ele>383.993</ele>
        <time>2018-07-31T14:42:01Z</time>
      </trkpt>
      <trkpt lat="44.72688" lon="1.87744">
        <ele>379.945</ele>
        <time>2018-07-31T14:41:41Z</time>
      </trkpt>
      <trkpt lat="44.72668" lon="1.87747">
        <ele>377.244</ele>
        <time>2018-07-31T14:41:21Z</time>
      </trkpt>
      <trkpt lat="44.72649" lon="1.87745">
        <ele>375.537</ele>
        <time>2018-07-31T14:41:01Z</time>
      </trkpt>
      <trkpt lat="44.72619" lon="1.8773">
        <ele>371.93</ele>
        <time>2018-07-31T14:40:41Z</time>
      </trkpt>
      <trkpt lat="44.72587" lon="1.8771">
        <ele>369.729</ele>
        <time>2018-07-31T14:40:21Z</time>
      </trkpt>
      <trkpt lat="44.72571" lon="1.87696">
        <ele>368.6</ele>
        <time>2018-07-31T14:40:01Z</time>
      </trkpt>
      <trkpt lat="44.72559" lon="1.87684">
        <ele>367.52</ele>
        <time>2018-07-31T14:39:41Z</time>
      </trkpt>
      <trkpt lat="44.7252" lon="1.87668">
        <ele>363.508</ele>
        <time>2018-07-31T14:39:21Z</time>
      </trkpt>
      <trkpt lat="44.72476" lon="1.87647">
        <ele>359.684</ele>
        <time>2018-07-31T14:39:01Z</time>
      </trkpt>
      <trkpt lat="44.72461" lon="1.8764">
        <ele>358.659</ele>
        <time>2018-07-31T14:38:41Z</time>
      </trkpt>
      <trkpt lat="44.72433" lon="1.8763">
        <ele>357.093</ele>
        <time>2018-07-31T14:38:21Z</time>
      </trkpt>
      <trkpt lat="44.72364" lon="1.87728">
        <ele>354.162</ele>
        <time>2018-07-31T14:38:01Z</time>
      </trkpt>
      <trkpt lat="44.72381" lon="1.87753">
        <ele>354.794</ele>
        <time>2018-07-31T14:37:41Z</time>
      </trkpt>
      <trkpt lat="44.72381" lon="1.8776">
        <ele>354.743</ele>
        <time>2018-07-31T14:37:21Z</time>
      </trkpt>
      <trkpt lat="44.72374" lon="1.87771">
        <ele>354.566</ele>
        <time>2018-07-31T14:37:01Z</time>
      </trkpt>
      <trkpt lat="44.72338" lon="1.8782">
        <ele>352.369</ele>
        <time>2018-07-31T14:36:41Z</time>
      </trkpt>
      <trkpt lat="44.72307" lon="1.87859">
        <ele>349.186</ele>
        <time>2018-07-31T14:36:21Z</time>
      </trkpt>
      <trkpt lat="44.72279" lon="1.87898">
        <ele>348.06</ele>
        <time>2018-07-31T14:36:01Z</time>
      </trkpt>
      <trkpt lat="44.72262" lon="1.87921">
        <ele>348.526</ele>
        <time>2018-07-31T14:35:41Z</time>
      </trkpt>
      <trkpt lat="44.72245" lon="1.87952">
        <ele>347.808</ele>
        <time>2018-07-31T14:35:21Z</time>
      </trkpt>
      <trkpt lat="44.72238" lon="1.8797">
        <ele>347.52</ele>
        <time>2018-07-31T14:35:01Z</time>
      </trkpt>
      <trkpt lat="44.72228" lon="1.8799">
        <ele>347.915</ele>
        <time>2018-07-31T14:34:41Z</time>
      </trkpt>
      <trkpt lat="44.72209" lon="1.88019">
        <ele>349.949</ele>
        <time>2018-07-31T14:34:21Z</time>
      </trkpt>
      <trkpt lat="44.72176" lon="1.88074">
        <ele>353.668</ele>
        <time>2018-07-31T14:34:01Z</time>
      </trkpt>
      <trkpt lat="44.72158" lon="1.88085">
        <ele>353.96</ele>
        <time>2018-07-31T14:33:41Z</time>
      </trkpt>
      <trkpt lat="44.72149" lon="1.88103">
        <ele>355.049</ele>
        <time>2018-07-31T14:33:21Z</time>
      </trkpt>
      <trkpt lat="44.72119" lon="1.88176">
        <ele>355.562</ele>
        <time>2018-07-31T14:33:01Z</time>
      </trkpt>
      <trkpt lat="44.72118" lon="1.88197">
        <ele>355.375</ele>
        <time>2018-07-31T14:32:41Z</time>
      </trkpt>
      <trkpt lat="44.72105" lon="1.88227">
        <ele>356.346</ele>
        <time>2018-07-31T14:32:21Z</time>
      </trkpt>
      <trkpt lat="44.72095" lon="1.88252">
        <ele>358.188</ele>
        <time>2018-07-31T14:32:01Z</time>
      </trkpt>
      <trkpt lat="44.72076" lon="1.883">
        <ele>359.616</ele>
        <time>2018-07-31T14:31:41Z</time>
      </trkpt>
      <trkpt lat="44.7206" lon="1.8835">
        <ele>359.308</ele>
        <time>2018-07-31T14:31:21Z</time>
      </trkpt>
      <trkpt lat="44.72061" lon="1.88359">
        <ele>359.466</ele>
        <time>2018-07-31T14:31:01Z</time>
      </trkpt>
      <trkpt lat="44.72065" lon="1.8837">
        <ele>359.921</ele>
        <time>2018-07-31T14:30:41Z</time>
      </trkpt>
      <trkpt lat="44.72095" lon="1.88409">
        <ele>361.375</ele>
        <time>2018-07-31T14:30:21Z</time>
      </trkpt>
      <trkpt lat="44.72131" lon="1.88449">
        <ele>362.784</ele>
        <time>2018-07-31T14:30:01Z</time>
      </trkpt>
      <trkpt lat="44.72136" lon="1.88464">
        <ele>362.956</ele>
        <time>2018-07-31T14:29:41Z</time>
      </trkpt>
      <trkpt lat="44.72137" lon="1.88484">
        <ele>363.835</ele>
        <time>2018-07-31T14:29:21Z</time>
      </trkpt>
      <trkpt lat="44.72135" lon="1.88521">
        <ele>367.018</ele>
        <time>2018-07-31T14:29:01Z</time>
      </trkpt>
      <trkpt lat="44.7213" lon="1.88579">
        <ele>369.521</ele>
        <time>2018-07-31T14:28:41Z</time>
      </trkpt>
      <trkpt lat="44.72133" lon="1.88626">
        <ele>371.372</ele>
        <time>2018-07-31T14:28:21Z</time>
      </trkpt>
      <trkpt lat="44.72135" lon="1.88671">
        <ele>374.013</ele>
        <time>2018-07-31T14:28:01Z</time>
      </trkpt>
      <trkpt lat="44.72131" lon="1.88716">
        <ele>376.114</ele>
        <time>2018-07-31T14:27:41Z</time>
      </trkpt>
      <trkpt lat="44.72123" lon="1.88756">
        <ele>377.108</ele>
        <time>2018-07-31T14:27:21Z</time>
      </trkpt>
      <trkpt lat="44.72106" lon="1.88822">
        <ele>379.689</ele>
        <time>2018-07-31T14:27:01Z</time>
      </trkpt>
      <trkpt lat="44.72095" lon="1.88865">
        <ele>380.414</ele>
        <time>2018-07-31T14:26:41Z</time>
      </trkpt>
      <trkpt lat="44.72076" lon="1.8892">
        <ele>382.698</ele>
        <time>2018-07-31T14:26:21Z</time>
      </trkpt>
      <trkpt lat="44.72061" lon="1.88958">
        <ele>382.457</ele>
        <time>2018-07-31T14:26:01Z</time>
      </trkpt>
      <trkpt lat="44.72021" lon="1.89065">
        <ele>383.919</ele>
        <time>2018-07-31T14:25:41Z</time>
      </trkpt>
      <trkpt lat="44.72006" lon="1.89106">
        <ele>385.378</ele>
        <time>2018-07-31T14:25:21Z</time>
      </trkpt>
      <trkpt lat="44.71997" lon="1.8914">
        <ele>386.581</ele>
        <time>2018-07-31T14:25:01Z</time>
      </trkpt>
      <trkpt lat="44.71991" lon="1.89189">
        <ele>386.074</ele>
        <time>2018-07-31T14:24:41Z</time>
      </trkpt>
      <trkpt lat="44.71987" lon="1.89221">
        <ele>386.084</ele>
        <time>2018-07-31T14:24:21Z</time>
      </trkpt>
      <trkpt lat="44.71985" lon="1.89263">
        <ele>386.207</ele>
        <time>2018-07-31T14:24:01Z</time>
      </trkpt>
      <trkpt lat="44.71986" lon="1.89293">
        <ele>385.717</ele>
        <time>2018-07-31T14:23:41Z</time>
      </trkpt>
      <trkpt lat="44.71982" lon="1.89325">
        <ele>385.608</ele>
        <time>2018-07-31T14:23:21Z</time>
      </trkpt>
      <trkpt lat="44.7197" lon="1.89377">
        <ele>387.01</ele>
        <time>2018-07-31T14:23:01Z</time>
      </trkpt>
      <trkpt lat="44.71966" lon="1.89414">
        <ele>388.495</ele>
        <time>2018-07-31T14:22:41Z</time>
      </trkpt>
      <trkpt lat="44.71962" lon="1.89457">
        <ele>388.999</ele>
        <time>2018-07-31T14:22:21Z</time>
      </trkpt>
      <trkpt lat="44.71959" lon="1.89475">
        <ele>388.718</ele>
        <time>2018-07-31T14:22:01Z</time>
      </trkpt>
      <trkpt lat="44.71954" lon="1.8951">
        <ele>388.66</ele>
        <time>2018-07-31T14:21:41Z</time>
      </trkpt>
      <trkpt lat="44.71947" lon="1.89542">
        <ele>389.749</ele>
        <time>2018-07-31T14:21:21Z</time>
      </trkpt>
      <trkpt lat="44.71941" lon="1.89574">
        <ele>392.122</ele>
        <time>2018-07-31T14:21:01Z</time>
      </trkpt>
      <trkpt lat="44.71938" lon="1.89595">
        <ele>393.395</ele>
        <time>2018-07-31T14:20:41Z</time>
      </trkpt>
      <trkpt lat="44.71939" lon="1.89606">
        <ele>394.044</ele>
        <time>2018-07-31T14:20:21Z</time>
      </trkpt>
      <trkpt lat="44.71943" lon="1.89627">
        <ele>394.205</ele>
        <time>2018-07-31T14:20:01Z</time>
      </trkpt>
      <trkpt lat="44.71948" lon="1.89653">
        <ele>393.115</ele>
        <time>2018-07-31T14:19:41Z</time>
      </trkpt>
      <trkpt lat="44.71951" lon="1.8967">
        <ele>392.108</ele>
        <time>2018-07-31T14:19:21Z</time>
      </trkpt>
      <trkpt lat="44.71958" lon="1.89683">
        <ele>391.966</ele>
        <time>2018-07-31T14:19:01Z</time>
      </trkpt>
      <trkpt lat="44.71958" lon="1.89704">
        <ele>391.591</ele>
        <time>2018-07-31T14:18:41Z</time>
      </trkpt>
      <trkpt lat="44.71956" lon="1.89746">
        <ele>390.635</ele>
        <time>2018-07-31T14:18:21Z</time>
      </trkpt>
      <trkpt lat="44.71956" lon="1.89776">
        <ele>388.794</ele>
        <time>2018-07-31T14:18:01Z</time>
      </trkpt>
      <trkpt lat="44.71955" lon="1.89797">
        <ele>387.716</ele>
        <time>2018-07-31T14:17:41Z</time>
      </trkpt>
      <trkpt lat="44.71952" lon="1.89821">
        <ele>386.455</ele>
        <time>2018-07-31T14:17:21Z</time>
      </trkpt>
      <trkpt lat="44.71954" lon="1.89855">
        <ele>383.558</ele>
        <time>2018-07-31T14:17:01Z</time>
      </trkpt>
      <trkpt lat="44.71958" lon="1.89876">
        <ele>381.471</ele>
        <time>2018-07-31T14:16:41Z</time>
      </trkpt>
      <trkpt lat="44.71966" lon="1.89903">
        <ele>378.658</ele>
        <time>2018-07-31T14:16:21Z</time>
      </trkpt>
      <trkpt lat="44.71971" lon="1.89922">
        <ele>377.852</ele>
        <time>2018-07-31T14:16:01Z</time>
      </trkpt>
      <trkpt lat="44.71979" lon="1.89952">
        <ele>377.917</ele>
        <time>2018-07-31T14:15:41Z</time>
      </trkpt>
      <trkpt lat="44.71983" lon="1.89988">
        <ele>377.408</ele>
        <time>2018-07-31T14:15:21Z</time>
      </trkpt>
      <trkpt lat="44.71983" lon="1.90028">
        <ele>375.277</ele>
        <time>2018-07-31T14:15:01Z</time>
      </trkpt>
      <trkpt lat="44.71984" lon="1.9007">
        <ele>375.092</ele>
        <time>2018-07-31T14:14:41Z</time>
      </trkpt>
      <trkpt lat="44.71981" lon="1.90099">
        <ele>375.556</ele>
        <time>2018-07-31T14:14:21Z</time>
      </trkpt>
      <trkpt lat="44.7198" lon="1.90113">
        <ele>375.845</ele>
        <time>2018-07-31T14:14:01Z</time>
      </trkpt>
      <trkpt lat="44.71984" lon="1.90182">
        <ele>374.247</ele>
        <time>2018-07-31T14:13:41Z</time>
      </trkpt>
      <trkpt lat="44.71989" lon="1.90261">
        <ele>380.836</ele>
        <time>2018-07-31T14:13:21Z</time>
      </trkpt>
      <trkpt lat="44.72" lon="1.90318">
        <ele>382.489</ele>
        <time>2018-07-31T14:13:01Z</time>
      </trkpt>
      <trkpt lat="44.72004" lon="1.90347">
        <ele>384.522</ele>
        <time>2018-07-31T14:12:41Z</time>
      </trkpt>
      <trkpt lat="44.72006" lon="1.90432">
        <ele>392.176</ele>
        <time>2018-07-31T14:12:21Z</time>
      </trkpt>
      <trkpt lat="44.72008" lon="1.90493">
        <ele>396.39</ele>
        <time>2018-07-31T14:12:01Z</time>
      </trkpt>
      <trkpt lat="44.72012" lon="1.90538">
        <ele>398.719</ele>
        <time>2018-07-31T14:11:41Z</time>
      </trkpt>
      <trkpt lat="44.72018" lon="1.9058">
        <ele>400.808</ele>
        <time>2018-07-31T14:11:21Z</time>
      </trkpt>
      <trkpt lat="44.72023" lon="1.90653">
        <ele>399.729</ele>
        <time>2018-07-31T14:11:01Z</time>
      </trkpt>
      <trkpt lat="44.72027" lon="1.90728">
        <ele>393.854</ele>
        <time>2018-07-31T14:10:41Z</time>
      </trkpt>
      <trkpt lat="44.7203" lon="1.90743">
        <ele>392.298</ele>
        <time>2018-07-31T14:10:21Z</time>
      </trkpt>
      <trkpt lat="44.72036" lon="1.90757">
        <ele>390.847</ele>
        <time>2018-07-31T14:10:01Z</time>
      </trkpt>
      <trkpt lat="44.72046" lon="1.90787">
        <ele>390.479</ele>
        <time>2018-07-31T14:09:41Z</time>
      </trkpt>
      <trkpt lat="44.72062" lon="1.90823">
        <ele>390.938</ele>
        <time>2018-07-31T14:09:21Z</time>
      </trkpt>
      <trkpt lat="44.72076" lon="1.90852">
        <ele>390.391</ele>
        <time>2018-07-31T14:09:01Z</time>
      </trkpt>
      <trkpt lat="44.72088" lon="1.90885">
        <ele>385.414</ele>
        <time>2018-07-31T14:08:41Z</time>
      </trkpt>
      <trkpt lat="44.72111" lon="1.90993">
        <ele>374.511</ele>
        <time>2018-07-31T14:08:21Z</time>
      </trkpt>
      <trkpt lat="44.72129" lon="1.91072">
        <ele>365.921</ele>
        <time>2018-07-31T14:08:01Z</time>
      </trkpt>
      <trkpt lat="44.72151" lon="1.91169">
        <ele>363.003</ele>
        <time>2018-07-31T14:07:41Z</time>
      </trkpt>
      <trkpt lat="44.72158" lon="1.91198">
        <ele>361.608</ele>
        <time>2018-07-31T14:07:21Z</time>
      </trkpt>
      <trkpt lat="44.72171" lon="1.91232">
        <ele>360.963</ele>
        <time>2018-07-31T14:07:01Z</time>
      </trkpt>
      <trkpt lat="44.7218" lon="1.91257">
        <ele>361.168</ele>
        <time>2018-07-31T14:06:41Z</time>
      </trkpt>
      <trkpt lat="44.72209" lon="1.91307">
        <ele>360.562</ele>
        <time>2018-07-31T14:06:21Z</time>
      </trkpt>
      <trkpt lat="44.72256" lon="1.91374">
        <ele>361.821</ele>
        <time>2018-07-31T14:06:01Z</time>
      </trkpt>
      <trkpt lat="44.72273" lon="1.91392">
        <ele>362.733</ele>
        <time>2018-07-31T14:05:41Z</time>
      </trkpt>
      <trkpt lat="44.72314" lon="1.91423">
        <ele>366.592</ele>
        <time>2018-07-31T14:05:21Z</time>
      </trkpt>
      <trkpt lat="44.72341" lon="1.91443">
        <ele>367.335</ele>
        <time>2018-07-31T14:05:01Z</time>
      </trkpt>
      <trkpt lat="44.7238" lon="1.91482">
        <ele>367.238</ele>
        <time>2018-07-31T14:04:41Z</time>
      </trkpt>
      <trkpt lat="44.72405" lon="1.91506">
        <ele>365.839</ele>
        <time>2018-07-31T14:04:21Z</time>
      </trkpt>
      <trkpt lat="44.72467" lon="1.91574">
        <ele>366.501</ele>
        <time>2018-07-31T14:04:01Z</time>
      </trkpt>
      <trkpt lat="44.72517" lon="1.91636">
        <ele>367.321</ele>
        <time>2018-07-31T14:03:41Z</time>
      </trkpt>
      <trkpt lat="44.7255" lon="1.91682">
        <ele>368.508</ele>
        <time>2018-07-31T14:03:21Z</time>
      </trkpt>
      <trkpt lat="44.72571" lon="1.91718">
        <ele>370.715</ele>
        <time>2018-07-31T14:03:01Z</time>
      </trkpt>
      <trkpt lat="44.72604" lon="1.91773">
        <ele>373.16</ele>
        <time>2018-07-31T14:02:41Z</time>
      </trkpt>
      <trkpt lat="44.72634" lon="1.91817">
        <ele>373.614</ele>
        <time>2018-07-31T14:02:21Z</time>
      </trkpt>
      <trkpt lat="44.7266" lon="1.91848">
        <ele>374.973</ele>
        <time>2018-07-31T14:02:01Z</time>
      </trkpt>
      <trkpt lat="44.7267" lon="1.9187">
        <ele>375.335</ele>
        <time>2018-07-31T14:01:41Z</time>
      </trkpt>
      <trkpt lat="44.72691" lon="1.91892">
        <ele>375.324</ele>
        <time>2018-07-31T14:01:21Z</time>
      </trkpt>
      <trkpt lat="44.72704" lon="1.91919">
        <ele>376.457</ele>
        <time>2018-07-31T14:01:01Z</time>
      </trkpt>
      <trkpt lat="44.72727" lon="1.91971">
        <ele>376.25</ele>
        <time>2018-07-31T14:00:41Z</time>
      </trkpt>
      <trkpt lat="44.72736" lon="1.91991">
        <ele>376.253</ele>
        <time>2018-07-31T14:00:21Z</time>
      </trkpt>
      <trkpt lat="44.72764" lon="1.92053">
        <ele>376.104</ele>
        <time>2018-07-31T14:00:01Z</time>
      </trkpt>
      <trkpt lat="44.72804" lon="1.92148">
        <ele>376.614</ele>
        <time>2018-07-31T13:59:41Z</time>
      </trkpt>
      <trkpt lat="44.72846" lon="1.92251">
        <ele>380.508</ele>
        <time>2018-07-31T13:59:21Z</time>
      </trkpt>
      <trkpt lat="44.72895" lon="1.92359">
        <ele>379.347</ele>
        <time>2018-08-02T10:21:14Z</time>
      </trkpt>
      <trkpt lat="44.72913" lon="1.92457">
        <ele>381.982</ele>
        <time>2018-08-02T10:21:34Z</time>
      </trkpt>
      <trkpt lat="44.72931" lon="1.92562">
        <ele>381.516</ele>
        <time>2018-08-02T10:21:54Z</time>
      </trkpt>
      <trkpt lat="44.72931" lon="1.92564">
        <ele>381.515</ele>
        <time>2018-08-02T10:22:14Z</time>
      </trkpt>
    </trkseg>
  </trk>
</gpx>